<?xml version="1.0" encoding="UTF-8" standalone="no" ?>
<gpx xmlns="http://www.topografix.com/GPX/1/1" xmlns:xsi="http://www.w3.org/2001/XMLSchema-instance" xsi:schemaLocation="http://www.topografix.com/GPX/1/1 http://www.topografix.com/GPX/1/1/gpx.xsd" version="1.1" creator="VisuGPX - https://www.visugpx.com">
  <metadata>
    <name>Le Pic de Bertagne au départ de Plan d'Aups</name>
    <desc><![CDATA[Rando facile, passage dans le lit d'une rivière (sèche) et à la source du Clos.]]></desc>
  </metadata>
  <wpt lat="43.31457" lon="5.68868">
    <ele>1038.8225097656</ele>
    <name><![CDATA[001]]></name>
    <desc><![CDATA[13-DEC-20 12:37:18]]></desc>
    <cmt><![CDATA[13-DEC-20 12:37:18]]></cmt>
  </wpt>
  <wpt lat="43.31254" lon="5.69288">
    <ele>1007.0991210938</ele>
    <name><![CDATA[Carrefour rout]]></name>
  </wpt>
  <wpt lat="43.31254" lon="5.69288">
    <ele>1007</ele>
    <name><![CDATA[Carrefour route goudronnée]]></name>
  </wpt>
  <wpt lat="43.32676" lon="5.71333">
    <ele>682.89697265625</ele>
    <name><![CDATA[Chemin de l'Ub]]></name>
  </wpt>
  <wpt lat="43.32676" lon="5.71333">
    <ele>683</ele>
    <name><![CDATA[Chemin de l'Ubac]]></name>
  </wpt>
  <wpt lat="43.32146" lon="5.7422">
    <ele>960</ele>
    <name><![CDATA[GR 98]]></name>
  </wpt>
  <wpt lat="43.32364" lon="5.70701">
    <ele>687.94384765625</ele>
    <name><![CDATA[Parking de l 1]]></name>
  </wpt>
  <wpt lat="43.32363" lon="5.70705">
    <ele>687.94384765625</ele>
    <name><![CDATA[Parking de la]]></name>
  </wpt>
  <wpt lat="43.32363" lon="5.70705">
    <ele>688</ele>
    <name><![CDATA[Parking de la Brasque]]></name>
  </wpt>
  <wpt lat="43.32364" lon="5.70701">
    <ele>688</ele>
    <name><![CDATA[Parking de la Brasque1]]></name>
  </wpt>
  <wpt lat="43.32285" lon="5.73411">
    <ele>718.94604492188</ele>
    <name><![CDATA[Petit chemin s]]></name>
  </wpt>
  <wpt lat="43.32285" lon="5.73411">
    <ele>719</ele>
    <name><![CDATA[Petit chemin sur la gauche]]></name>
  </wpt>
  <wpt lat="43.31575" lon="5.69">
    <ele>866.02685546875</ele>
    <name><![CDATA[Vallon du chem]]></name>
  </wpt>
  <wpt lat="43.31575" lon="5.69">
    <ele>866</ele>
    <name><![CDATA[Vallon du chemin de fer]]></name>
  </wpt>
  <wpt lat="43.32093" lon="5.71316">
    <ele>752.111328125</ele>
    <name><![CDATA[Virage à gauch]]></name>
  </wpt>
  <wpt lat="43.32093" lon="5.71316">
    <ele>752</ele>
    <name><![CDATA[Virage à gauche sur l'ubac]]></name>
  </wpt>
  <trk>
    <name><![CDATA[ACTIVE LOG 002]]></name>
    <trkseg>
      <trkpt lat="43.3234" lon="5.70674">
        <ele>667.77270507812</ele>
        <time>2020-12-13T10:49:32Z</time>
      </trkpt>
      <trkpt lat="43.32341" lon="5.70673">
        <ele>669.69580078125</ele>
        <time>2020-12-13T10:49:38Z</time>
      </trkpt>
      <trkpt lat="43.32322" lon="5.70667">
        <ele>677.86669921875</ele>
        <time>2020-12-13T10:49:55Z</time>
      </trkpt>
      <trkpt lat="43.32298" lon="5.70674">
        <ele>682.67333984375</ele>
        <time>2020-12-13T10:50:16Z</time>
      </trkpt>
      <trkpt lat="43.32273" lon="5.70681">
        <ele>689.40258789062</ele>
        <time>2020-12-13T10:50:37Z</time>
      </trkpt>
      <trkpt lat="43.32272" lon="5.70681">
        <ele>691.80590820312</ele>
        <time>2020-12-13T10:50:53Z</time>
      </trkpt>
      <trkpt lat="43.32273" lon="5.7068">
        <ele>691.3251953125</ele>
        <time>2020-12-13T10:50:55Z</time>
      </trkpt>
      <trkpt lat="43.32294" lon="5.70673">
        <ele>689.40258789062</ele>
        <time>2020-12-13T10:51:18Z</time>
      </trkpt>
      <trkpt lat="43.32313" lon="5.70667">
        <ele>689.88330078125</ele>
        <time>2020-12-13T10:51:38Z</time>
      </trkpt>
      <trkpt lat="43.32319" lon="5.70662">
        <ele>690.36401367188</ele>
        <time>2020-12-13T10:51:46Z</time>
      </trkpt>
      <trkpt lat="43.32342" lon="5.70656">
        <ele>688.44140625</ele>
        <time>2020-12-13T10:52:04Z</time>
      </trkpt>
      <trkpt lat="43.32354" lon="5.70638">
        <ele>686.0380859375</ele>
        <time>2020-12-13T10:52:23Z</time>
      </trkpt>
      <trkpt lat="43.32352" lon="5.70631">
        <ele>685.07690429688</ele>
        <time>2020-12-13T10:52:29Z</time>
      </trkpt>
      <trkpt lat="43.32351" lon="5.70621">
        <ele>683.15380859375</ele>
        <time>2020-12-13T10:52:40Z</time>
      </trkpt>
      <trkpt lat="43.32346" lon="5.70611">
        <ele>682.19262695312</ele>
        <time>2020-12-13T10:52:47Z</time>
      </trkpt>
      <trkpt lat="43.32344" lon="5.70605">
        <ele>681.2314453125</ele>
        <time>2020-12-13T10:52:52Z</time>
      </trkpt>
      <trkpt lat="43.32338" lon="5.70582">
        <ele>680.75073242188</ele>
        <time>2020-12-13T10:53:07Z</time>
      </trkpt>
      <trkpt lat="43.32337" lon="5.70569">
        <ele>681.7119140625</ele>
        <time>2020-12-13T10:53:15Z</time>
      </trkpt>
      <trkpt lat="43.32334" lon="5.70556">
        <ele>681.7119140625</ele>
        <time>2020-12-13T10:53:23Z</time>
      </trkpt>
      <trkpt lat="43.32326" lon="5.7055">
        <ele>680.75073242188</ele>
        <time>2020-12-13T10:53:30Z</time>
      </trkpt>
      <trkpt lat="43.3232" lon="5.70544">
        <ele>680.75073242188</ele>
        <time>2020-12-13T10:53:37Z</time>
      </trkpt>
      <trkpt lat="43.32317" lon="5.70536">
        <ele>682.19262695312</ele>
        <time>2020-12-13T10:53:48Z</time>
      </trkpt>
      <trkpt lat="43.32309" lon="5.70504">
        <ele>682.67333984375</ele>
        <time>2020-12-13T10:54:09Z</time>
      </trkpt>
      <trkpt lat="43.32299" lon="5.70484">
        <ele>685.07690429688</ele>
        <time>2020-12-13T10:54:25Z</time>
      </trkpt>
      <trkpt lat="43.32298" lon="5.70482">
        <ele>685.55737304688</ele>
        <time>2020-12-13T10:54:27Z</time>
      </trkpt>
      <trkpt lat="43.32287" lon="5.70462">
        <ele>695.17041015625</ele>
        <time>2020-12-13T10:54:45Z</time>
      </trkpt>
      <trkpt lat="43.3229" lon="5.70435">
        <ele>706.2255859375</ele>
        <time>2020-12-13T10:55:02Z</time>
      </trkpt>
      <trkpt lat="43.32285" lon="5.70406">
        <ele>717.28100585938</ele>
        <time>2020-12-13T10:55:17Z</time>
      </trkpt>
      <trkpt lat="43.32287" lon="5.70408">
        <ele>716.80029296875</ele>
        <time>2020-12-13T10:55:19Z</time>
      </trkpt>
      <trkpt lat="43.32284" lon="5.70383">
        <ele>722.56811523438</ele>
        <time>2020-12-13T10:55:34Z</time>
      </trkpt>
      <trkpt lat="43.32283" lon="5.70356">
        <ele>730.25854492188</ele>
        <time>2020-12-13T10:55:50Z</time>
      </trkpt>
      <trkpt lat="43.3228" lon="5.70341">
        <ele>731.21997070312</ele>
        <time>2020-12-13T10:56:01Z</time>
      </trkpt>
      <trkpt lat="43.32269" lon="5.70323">
        <ele>726.41333007812</ele>
        <time>2020-12-13T10:56:17Z</time>
      </trkpt>
      <trkpt lat="43.32255" lon="5.70293">
        <ele>733.62329101562</ele>
        <time>2020-12-13T10:56:36Z</time>
      </trkpt>
      <trkpt lat="43.32251" lon="5.70277">
        <ele>740.8330078125</ele>
        <time>2020-12-13T10:56:46Z</time>
      </trkpt>
      <trkpt lat="43.32237" lon="5.70256">
        <ele>750.44653320312</ele>
        <time>2020-12-13T10:57:02Z</time>
      </trkpt>
      <trkpt lat="43.32231" lon="5.70246">
        <ele>753.33032226562</ele>
        <time>2020-12-13T10:57:09Z</time>
      </trkpt>
      <trkpt lat="43.32216" lon="5.70224">
        <ele>759.57885742188</ele>
        <time>2020-12-13T10:57:28Z</time>
      </trkpt>
      <trkpt lat="43.32201" lon="5.70218">
        <ele>757.17553710938</ele>
        <time>2020-12-13T10:57:42Z</time>
      </trkpt>
      <trkpt lat="43.32191" lon="5.70207">
        <ele>760.5400390625</ele>
        <time>2020-12-13T10:57:52Z</time>
      </trkpt>
      <trkpt lat="43.32189" lon="5.70195">
        <ele>762.46264648438</ele>
        <time>2020-12-13T10:57:59Z</time>
      </trkpt>
      <trkpt lat="43.32183" lon="5.70194">
        <ele>761.98217773438</ele>
        <time>2020-12-13T10:58:03Z</time>
      </trkpt>
      <trkpt lat="43.32182" lon="5.70189">
        <ele>762.943359375</ele>
        <time>2020-12-13T10:58:07Z</time>
      </trkpt>
      <trkpt lat="43.32175" lon="5.70181">
        <ele>765.82763671875</ele>
        <time>2020-12-13T10:58:14Z</time>
      </trkpt>
      <trkpt lat="43.3217" lon="5.70177">
        <ele>767.75</ele>
        <time>2020-12-13T10:58:18Z</time>
      </trkpt>
      <trkpt lat="43.3217" lon="5.70173">
        <ele>770.1533203125</ele>
        <time>2020-12-13T10:58:22Z</time>
      </trkpt>
      <trkpt lat="43.32147" lon="5.70162">
        <ele>777.84375</ele>
        <time>2020-12-13T10:58:39Z</time>
      </trkpt>
      <trkpt lat="43.32139" lon="5.70148">
        <ele>781.68920898438</ele>
        <time>2020-12-13T10:58:49Z</time>
      </trkpt>
      <trkpt lat="43.32129" lon="5.70135">
        <ele>787.45703125</ele>
        <time>2020-12-13T10:58:59Z</time>
      </trkpt>
      <trkpt lat="43.32112" lon="5.70121">
        <ele>788.41845703125</ele>
        <time>2020-12-13T10:59:16Z</time>
      </trkpt>
      <trkpt lat="43.32098" lon="5.7011">
        <ele>789.37963867188</ele>
        <time>2020-12-13T10:59:32Z</time>
      </trkpt>
      <trkpt lat="43.32088" lon="5.70093">
        <ele>795.1474609375</ele>
        <time>2020-12-13T10:59:47Z</time>
      </trkpt>
      <trkpt lat="43.3208" lon="5.70083">
        <ele>789.37963867188</ele>
        <time>2020-12-13T11:00:03Z</time>
      </trkpt>
      <trkpt lat="43.3208" lon="5.70062">
        <ele>781.68920898438</ele>
        <time>2020-12-13T11:00:17Z</time>
      </trkpt>
      <trkpt lat="43.32076" lon="5.70057">
        <ele>781.68920898438</ele>
        <time>2020-12-13T11:00:37Z</time>
      </trkpt>
      <trkpt lat="43.3208" lon="5.70047">
        <ele>781.20874023438</ele>
        <time>2020-12-13T11:00:41Z</time>
      </trkpt>
      <trkpt lat="43.32093" lon="5.70028">
        <ele>783.61181640625</ele>
        <time>2020-12-13T11:00:56Z</time>
      </trkpt>
      <trkpt lat="43.32104" lon="5.70028">
        <ele>786.49584960938</ele>
        <time>2020-12-13T11:01:10Z</time>
      </trkpt>
      <trkpt lat="43.3211" lon="5.70013">
        <ele>789.37963867188</ele>
        <time>2020-12-13T11:01:23Z</time>
      </trkpt>
      <trkpt lat="43.32111" lon="5.69997">
        <ele>793.70556640625</ele>
        <time>2020-12-13T11:01:37Z</time>
      </trkpt>
      <trkpt lat="43.3212" lon="5.69984">
        <ele>796.10913085938</ele>
        <time>2020-12-13T11:01:51Z</time>
      </trkpt>
      <trkpt lat="43.32105" lon="5.69978">
        <ele>802.357421875</ele>
        <time>2020-12-13T11:02:05Z</time>
      </trkpt>
      <trkpt lat="43.32079" lon="5.69973">
        <ele>806.68334960938</ele>
        <time>2020-12-13T11:02:25Z</time>
      </trkpt>
      <trkpt lat="43.32054" lon="5.69963">
        <ele>811.48999023438</ele>
        <time>2020-12-13T11:02:40Z</time>
      </trkpt>
      <trkpt lat="43.32055" lon="5.69947">
        <ele>816.77734375</ele>
        <time>2020-12-13T11:02:54Z</time>
      </trkpt>
      <trkpt lat="43.32056" lon="5.69943">
        <ele>816.77734375</ele>
        <time>2020-12-13T11:02:55Z</time>
      </trkpt>
      <trkpt lat="43.32053" lon="5.6994">
        <ele>817.73852539062</ele>
        <time>2020-12-13T11:02:58Z</time>
      </trkpt>
      <trkpt lat="43.3204" lon="5.69919">
        <ele>822.54516601562</ele>
        <time>2020-12-13T11:03:14Z</time>
      </trkpt>
      <trkpt lat="43.3203" lon="5.69913">
        <ele>830.71655273438</ele>
        <time>2020-12-13T11:03:28Z</time>
      </trkpt>
      <trkpt lat="43.32023" lon="5.69903">
        <ele>843.69409179688</ele>
        <time>2020-12-13T11:03:44Z</time>
      </trkpt>
      <trkpt lat="43.32007" lon="5.6989">
        <ele>853.7880859375</ele>
        <time>2020-12-13T11:03:59Z</time>
      </trkpt>
      <trkpt lat="43.31995" lon="5.6988">
        <ele>866.76586914062</ele>
        <time>2020-12-13T11:04:14Z</time>
      </trkpt>
      <trkpt lat="43.31994" lon="5.69877">
        <ele>871.572265625</ele>
        <time>2020-12-13T11:04:20Z</time>
      </trkpt>
      <trkpt lat="43.3199" lon="5.69867">
        <ele>878.78247070312</ele>
        <time>2020-12-13T11:04:31Z</time>
      </trkpt>
      <trkpt lat="43.31982" lon="5.69859">
        <ele>887.43408203125</ele>
        <time>2020-12-13T11:04:44Z</time>
      </trkpt>
      <trkpt lat="43.31975" lon="5.69847">
        <ele>890.31811523438</ele>
        <time>2020-12-13T11:04:55Z</time>
      </trkpt>
      <trkpt lat="43.31966" lon="5.69833">
        <ele>894.16357421875</ele>
        <time>2020-12-13T11:05:07Z</time>
      </trkpt>
      <trkpt lat="43.31965" lon="5.69828">
        <ele>895.60546875</ele>
        <time>2020-12-13T11:05:12Z</time>
      </trkpt>
      <trkpt lat="43.31956" lon="5.69811">
        <ele>901.37329101562</ele>
        <time>2020-12-13T11:05:30Z</time>
      </trkpt>
      <trkpt lat="43.31947" lon="5.69801">
        <ele>905.69921875</ele>
        <time>2020-12-13T11:05:48Z</time>
      </trkpt>
      <trkpt lat="43.31918" lon="5.69773">
        <ele>909.06396484375</ele>
        <time>2020-12-13T11:06:16Z</time>
      </trkpt>
      <trkpt lat="43.3191" lon="5.69766">
        <ele>910.02514648438</ele>
        <time>2020-12-13T11:06:24Z</time>
      </trkpt>
      <trkpt lat="43.31887" lon="5.69739">
        <ele>914.35107421875</ele>
        <time>2020-12-13T11:06:52Z</time>
      </trkpt>
      <trkpt lat="43.31877" lon="5.6971">
        <ele>919.15771484375</ele>
        <time>2020-12-13T11:07:21Z</time>
      </trkpt>
      <trkpt lat="43.31864" lon="5.69676">
        <ele>922.52221679688</ele>
        <time>2020-12-13T11:07:53Z</time>
      </trkpt>
      <trkpt lat="43.31859" lon="5.69671">
        <ele>923.0029296875</ele>
        <time>2020-12-13T11:07:57Z</time>
      </trkpt>
      <trkpt lat="43.31851" lon="5.69657">
        <ele>925.88696289062</ele>
        <time>2020-12-13T11:08:12Z</time>
      </trkpt>
      <trkpt lat="43.31843" lon="5.69638">
        <ele>930.212890625</ele>
        <time>2020-12-13T11:08:29Z</time>
      </trkpt>
      <trkpt lat="43.31833" lon="5.6962">
        <ele>933.57739257812</ele>
        <time>2020-12-13T11:08:45Z</time>
      </trkpt>
      <trkpt lat="43.31823" lon="5.69601">
        <ele>937.42260742188</ele>
        <time>2020-12-13T11:09:05Z</time>
      </trkpt>
      <trkpt lat="43.31817" lon="5.6958">
        <ele>940.78735351562</ele>
        <time>2020-12-13T11:09:25Z</time>
      </trkpt>
      <trkpt lat="43.31797" lon="5.6955">
        <ele>944.63256835938</ele>
        <time>2020-12-13T11:09:51Z</time>
      </trkpt>
      <trkpt lat="43.3179" lon="5.69527">
        <ele>947.99731445312</ele>
        <time>2020-12-13T11:10:09Z</time>
      </trkpt>
      <trkpt lat="43.31787" lon="5.69522">
        <ele>949.43920898438</ele>
        <time>2020-12-13T11:10:16Z</time>
      </trkpt>
      <trkpt lat="43.31774" lon="5.69501">
        <ele>954.72631835938</ele>
        <time>2020-12-13T11:10:40Z</time>
      </trkpt>
      <trkpt lat="43.31745" lon="5.69471">
        <ele>961.9365234375</ele>
        <time>2020-12-13T11:11:09Z</time>
      </trkpt>
      <trkpt lat="43.31729" lon="5.69435">
        <ele>970.107421875</ele>
        <time>2020-12-13T11:11:40Z</time>
      </trkpt>
      <trkpt lat="43.31716" lon="5.694">
        <ele>978.75952148438</ele>
        <time>2020-12-13T11:12:10Z</time>
      </trkpt>
      <trkpt lat="43.31695" lon="5.69373">
        <ele>986.44995117188</ele>
        <time>2020-12-13T11:12:36Z</time>
      </trkpt>
      <trkpt lat="43.31678" lon="5.69346">
        <ele>994.140625</ele>
        <time>2020-12-13T11:13:02Z</time>
      </trkpt>
      <trkpt lat="43.31667" lon="5.69327">
        <ele>999.427734375</ele>
        <time>2020-12-13T11:13:20Z</time>
      </trkpt>
      <trkpt lat="43.31665" lon="5.69325">
        <ele>999.427734375</ele>
        <time>2020-12-13T11:13:22Z</time>
      </trkpt>
      <trkpt lat="43.31661" lon="5.69321">
        <ele>999.90844726562</ele>
        <time>2020-12-13T11:13:28Z</time>
      </trkpt>
      <trkpt lat="43.31659" lon="5.69316">
        <ele>1000.3891601562</ele>
        <time>2020-12-13T11:13:32Z</time>
      </trkpt>
      <trkpt lat="43.31647" lon="5.69301">
        <ele>1002.7922363281</ele>
        <time>2020-12-13T11:13:46Z</time>
      </trkpt>
      <trkpt lat="43.31643" lon="5.69297">
        <ele>1003.2729492188</ele>
        <time>2020-12-13T11:13:50Z</time>
      </trkpt>
      <trkpt lat="43.31641" lon="5.69277">
        <ele>1006.6376953125</ele>
        <time>2020-12-13T11:14:07Z</time>
      </trkpt>
      <trkpt lat="43.31627" lon="5.69259">
        <ele>1010.4829101562</ele>
        <time>2020-12-13T11:14:29Z</time>
      </trkpt>
      <trkpt lat="43.31621" lon="5.69237">
        <ele>1014.8088378906</ele>
        <time>2020-12-13T11:14:53Z</time>
      </trkpt>
      <trkpt lat="43.31616" lon="5.69228">
        <ele>1018.1733398438</ele>
        <time>2020-12-13T11:15:10Z</time>
      </trkpt>
      <trkpt lat="43.31607" lon="5.69214">
        <ele>1022.4995117188</ele>
        <time>2020-12-13T11:15:30Z</time>
      </trkpt>
      <trkpt lat="43.31601" lon="5.69196">
        <ele>1028.2673339844</ele>
        <time>2020-12-13T11:15:48Z</time>
      </trkpt>
      <trkpt lat="43.31589" lon="5.69179">
        <ele>1034.5158691406</ele>
        <time>2020-12-13T11:16:06Z</time>
      </trkpt>
      <trkpt lat="43.31586" lon="5.69178">
        <ele>1035.4770507812</ele>
        <time>2020-12-13T11:16:09Z</time>
      </trkpt>
      <trkpt lat="43.31581" lon="5.69167">
        <ele>1040.2839355469</ele>
        <time>2020-12-13T11:16:21Z</time>
      </trkpt>
      <trkpt lat="43.31577" lon="5.69163">
        <ele>1041.2451171875</ele>
        <time>2020-12-13T11:16:27Z</time>
      </trkpt>
      <trkpt lat="43.31571" lon="5.69159">
        <ele>1043.1677246094</ele>
        <time>2020-12-13T11:16:38Z</time>
      </trkpt>
      <trkpt lat="43.31567" lon="5.69149">
        <ele>1045.5710449219</ele>
        <time>2020-12-13T11:16:49Z</time>
      </trkpt>
      <trkpt lat="43.31562" lon="5.69139">
        <ele>1048.4548339844</ele>
        <time>2020-12-13T11:17:02Z</time>
      </trkpt>
      <trkpt lat="43.31557" lon="5.69127">
        <ele>1052.7810058594</ele>
        <time>2020-12-13T11:17:16Z</time>
      </trkpt>
      <trkpt lat="43.31553" lon="5.69118">
        <ele>1057.1069335938</ele>
        <time>2020-12-13T11:17:27Z</time>
      </trkpt>
      <trkpt lat="43.31546" lon="5.69106">
        <ele>1064.3166503906</ele>
        <time>2020-12-13T11:17:42Z</time>
      </trkpt>
      <trkpt lat="43.31538" lon="5.69095">
        <ele>1072.4880371094</ele>
        <time>2020-12-13T11:17:59Z</time>
      </trkpt>
      <trkpt lat="43.31538" lon="5.69096">
        <ele>1073.4494628906</ele>
        <time>2020-12-13T11:18:00Z</time>
      </trkpt>
      <trkpt lat="43.3153" lon="5.69088">
        <ele>1077.7751464844</ele>
        <time>2020-12-13T11:18:15Z</time>
      </trkpt>
      <trkpt lat="43.31525" lon="5.69075">
        <ele>1082.5817871094</ele>
        <time>2020-12-13T11:18:30Z</time>
      </trkpt>
      <trkpt lat="43.31522" lon="5.69063">
        <ele>1086.9077148438</ele>
        <time>2020-12-13T11:18:45Z</time>
      </trkpt>
      <trkpt lat="43.31513" lon="5.69044">
        <ele>1092.1950683594</ele>
        <time>2020-12-13T11:19:06Z</time>
      </trkpt>
      <trkpt lat="43.31501" lon="5.69023">
        <ele>1097.4821777344</ele>
        <time>2020-12-13T11:19:25Z</time>
      </trkpt>
      <trkpt lat="43.31497" lon="5.69018">
        <ele>1097.962890625</ele>
        <time>2020-12-13T11:19:27Z</time>
      </trkpt>
      <trkpt lat="43.31487" lon="5.69004">
        <ele>1100.8469238281</ele>
        <time>2020-12-13T11:19:43Z</time>
      </trkpt>
      <trkpt lat="43.31482" lon="5.69">
        <ele>1101.3276367188</ele>
        <time>2020-12-13T11:20:12Z</time>
      </trkpt>
      <trkpt lat="43.31472" lon="5.68995">
        <ele>1101.8083496094</ele>
        <time>2020-12-13T11:20:56Z</time>
      </trkpt>
      <trkpt lat="43.31467" lon="5.68992">
        <ele>1101.3276367188</ele>
        <time>2020-12-13T11:21:01Z</time>
      </trkpt>
      <trkpt lat="43.31463" lon="5.68987">
        <ele>1101.3276367188</ele>
        <time>2020-12-13T11:21:06Z</time>
      </trkpt>
      <trkpt lat="43.31461" lon="5.68978">
        <ele>1100.8469238281</ele>
        <time>2020-12-13T11:21:11Z</time>
      </trkpt>
      <trkpt lat="43.31459" lon="5.6897">
        <ele>1100.3664550781</ele>
        <time>2020-12-13T11:21:17Z</time>
      </trkpt>
      <trkpt lat="43.31452" lon="5.68956">
        <ele>1099.4047851562</ele>
        <time>2020-12-13T11:21:29Z</time>
      </trkpt>
      <trkpt lat="43.31447" lon="5.68943">
        <ele>1098.443359375</ele>
        <time>2020-12-13T11:21:40Z</time>
      </trkpt>
      <trkpt lat="43.31432" lon="5.68923">
        <ele>1096.5209960938</ele>
        <time>2020-12-13T11:21:59Z</time>
      </trkpt>
      <trkpt lat="43.3143" lon="5.6892">
        <ele>1093.15625</ele>
        <time>2020-12-13T11:22:16Z</time>
      </trkpt>
      <trkpt lat="43.31456" lon="5.68887">
        <ele>1015.2895507812</ele>
        <time>2020-12-13T11:38:51Z</time>
      </trkpt>
      <trkpt lat="43.31461" lon="5.68896">
        <ele>1008.5603027344</ele>
        <time>2020-12-13T11:39:07Z</time>
      </trkpt>
      <trkpt lat="43.31473" lon="5.68921">
        <ele>1005.1958007812</ele>
        <time>2020-12-13T11:39:31Z</time>
      </trkpt>
      <trkpt lat="43.31483" lon="5.68937">
        <ele>1003.2729492188</ele>
        <time>2020-12-13T11:39:47Z</time>
      </trkpt>
      <trkpt lat="43.31492" lon="5.68942">
        <ele>1001.3503417969</ele>
        <time>2020-12-13T11:39:52Z</time>
      </trkpt>
      <trkpt lat="43.31498" lon="5.6895">
        <ele>999.90844726562</ele>
        <time>2020-12-13T11:39:58Z</time>
      </trkpt>
      <trkpt lat="43.31503" lon="5.68958">
        <ele>997.0244140625</ele>
        <time>2020-12-13T11:40:08Z</time>
      </trkpt>
      <trkpt lat="43.31501" lon="5.68959">
        <ele>996.06323242188</ele>
        <time>2020-12-13T11:40:12Z</time>
      </trkpt>
      <trkpt lat="43.31498" lon="5.68959">
        <ele>995.58251953125</ele>
        <time>2020-12-13T11:40:17Z</time>
      </trkpt>
      <trkpt lat="43.31488" lon="5.68965">
        <ele>996.06323242188</ele>
        <time>2020-12-13T11:40:32Z</time>
      </trkpt>
      <trkpt lat="43.31486" lon="5.68964">
        <ele>995.10180664062</ele>
        <time>2020-12-13T11:40:50Z</time>
      </trkpt>
      <trkpt lat="43.31475" lon="5.68969">
        <ele>996.06323242188</ele>
        <time>2020-12-13T11:41:19Z</time>
      </trkpt>
      <trkpt lat="43.31461" lon="5.68982">
        <ele>997.50512695312</ele>
        <time>2020-12-13T11:41:37Z</time>
      </trkpt>
      <trkpt lat="43.31447" lon="5.68996">
        <ele>998.46630859375</ele>
        <time>2020-12-13T11:41:56Z</time>
      </trkpt>
      <trkpt lat="43.31434" lon="5.68995">
        <ele>999.427734375</ele>
        <time>2020-12-13T11:42:12Z</time>
      </trkpt>
      <trkpt lat="43.31429" lon="5.6899">
        <ele>1000.8696289062</ele>
        <time>2020-12-13T11:42:28Z</time>
      </trkpt>
      <trkpt lat="43.31414" lon="5.69006">
        <ele>1004.2346191406</ele>
        <time>2020-12-13T11:42:50Z</time>
      </trkpt>
      <trkpt lat="43.31386" lon="5.68962">
        <ele>1008.0798339844</ele>
        <time>2020-12-13T11:43:23Z</time>
      </trkpt>
      <trkpt lat="43.3138" lon="5.68959">
        <ele>1010.9636230469</ele>
        <time>2020-12-13T11:43:50Z</time>
      </trkpt>
      <trkpt lat="43.31374" lon="5.68975">
        <ele>1014.8088378906</ele>
        <time>2020-12-13T11:44:23Z</time>
      </trkpt>
      <trkpt lat="43.31371" lon="5.68988">
        <ele>1015.7702636719</ele>
        <time>2020-12-13T11:44:52Z</time>
      </trkpt>
      <trkpt lat="43.31372" lon="5.69">
        <ele>1016.2507324219</ele>
        <time>2020-12-13T11:45:13Z</time>
      </trkpt>
      <trkpt lat="43.31374" lon="5.6901">
        <ele>1017.2121582031</ele>
        <time>2020-12-13T11:45:28Z</time>
      </trkpt>
      <trkpt lat="43.3138" lon="5.69026">
        <ele>1018.6540527344</ele>
        <time>2020-12-13T11:45:45Z</time>
      </trkpt>
      <trkpt lat="43.31389" lon="5.69035">
        <ele>1019.6154785156</ele>
        <time>2020-12-13T11:46:06Z</time>
      </trkpt>
      <trkpt lat="43.31394" lon="5.69047">
        <ele>1020.5769042969</ele>
        <time>2020-12-13T11:46:23Z</time>
      </trkpt>
      <trkpt lat="43.31395" lon="5.69061">
        <ele>1021.0576171875</ele>
        <time>2020-12-13T11:46:37Z</time>
      </trkpt>
      <trkpt lat="43.31396" lon="5.69065">
        <ele>1021.5380859375</ele>
        <time>2020-12-13T11:46:40Z</time>
      </trkpt>
      <trkpt lat="43.31404" lon="5.69075">
        <ele>1021.5380859375</ele>
        <time>2020-12-13T11:46:54Z</time>
      </trkpt>
      <trkpt lat="43.31406" lon="5.69086">
        <ele>1021.5380859375</ele>
        <time>2020-12-13T11:47:11Z</time>
      </trkpt>
      <trkpt lat="43.314" lon="5.69087">
        <ele>1021.5380859375</ele>
        <time>2020-12-13T11:47:28Z</time>
      </trkpt>
      <trkpt lat="43.31395" lon="5.69089">
        <ele>1022.0187988281</ele>
        <time>2020-12-13T11:47:41Z</time>
      </trkpt>
      <trkpt lat="43.31387" lon="5.6909">
        <ele>1022.4995117188</ele>
        <time>2020-12-13T11:47:54Z</time>
      </trkpt>
      <trkpt lat="43.31382" lon="5.69091">
        <ele>1022.4995117188</ele>
        <time>2020-12-13T11:48:08Z</time>
      </trkpt>
      <trkpt lat="43.31374" lon="5.691">
        <ele>1022.9802246094</ele>
        <time>2020-12-13T11:48:29Z</time>
      </trkpt>
      <trkpt lat="43.31372" lon="5.69104">
        <ele>1022.9802246094</ele>
        <time>2020-12-13T11:48:55Z</time>
      </trkpt>
      <trkpt lat="43.31372" lon="5.69104">
        <ele>1022.9802246094</ele>
        <time>2020-12-13T11:50:09Z</time>
      </trkpt>
      <trkpt lat="43.31367" lon="5.69106">
        <ele>1022.9802246094</ele>
        <time>2020-12-13T11:50:36Z</time>
      </trkpt>
      <trkpt lat="43.3136" lon="5.69106">
        <ele>1021.5380859375</ele>
        <time>2020-12-13T11:50:49Z</time>
      </trkpt>
      <trkpt lat="43.31353" lon="5.69117">
        <ele>1019.6154785156</ele>
        <time>2020-12-13T11:51:09Z</time>
      </trkpt>
      <trkpt lat="43.31346" lon="5.69132">
        <ele>1018.1733398438</ele>
        <time>2020-12-13T11:51:26Z</time>
      </trkpt>
      <trkpt lat="43.31368" lon="5.69159">
        <ele>1015.7702636719</ele>
        <time>2020-12-13T11:51:46Z</time>
      </trkpt>
      <trkpt lat="43.31385" lon="5.69162">
        <ele>1013.3669433594</ele>
        <time>2020-12-13T11:52:08Z</time>
      </trkpt>
      <trkpt lat="43.31383" lon="5.69161">
        <ele>1012.4055175781</ele>
        <time>2020-12-13T11:52:13Z</time>
      </trkpt>
      <trkpt lat="43.31388" lon="5.69155">
        <ele>1011.9250488281</ele>
        <time>2020-12-13T11:52:25Z</time>
      </trkpt>
      <trkpt lat="43.3139" lon="5.69142">
        <ele>1012.4055175781</ele>
        <time>2020-12-13T11:52:42Z</time>
      </trkpt>
      <trkpt lat="43.31382" lon="5.69142">
        <ele>1014.328125</ele>
        <time>2020-12-13T11:53:00Z</time>
      </trkpt>
      <trkpt lat="43.31385" lon="5.6916">
        <ele>1016.7314453125</ele>
        <time>2020-12-13T11:53:24Z</time>
      </trkpt>
      <trkpt lat="43.31378" lon="5.69159">
        <ele>1019.134765625</ele>
        <time>2020-12-13T11:53:47Z</time>
      </trkpt>
      <trkpt lat="43.31377" lon="5.69157">
        <ele>1021.0576171875</ele>
        <time>2020-12-13T11:54:11Z</time>
      </trkpt>
      <trkpt lat="43.31378" lon="5.69159">
        <ele>1021.5380859375</ele>
        <time>2020-12-13T11:54:15Z</time>
      </trkpt>
      <trkpt lat="43.31373" lon="5.69168">
        <ele>1020.5769042969</ele>
        <time>2020-12-13T11:54:34Z</time>
      </trkpt>
      <trkpt lat="43.31367" lon="5.69186">
        <ele>1020.0961914062</ele>
        <time>2020-12-13T11:55:04Z</time>
      </trkpt>
      <trkpt lat="43.31367" lon="5.69202">
        <ele>1019.134765625</ele>
        <time>2020-12-13T11:55:32Z</time>
      </trkpt>
      <trkpt lat="43.31332" lon="5.6922">
        <ele>1015.2895507812</ele>
        <time>2020-12-13T11:55:54Z</time>
      </trkpt>
      <trkpt lat="43.31326" lon="5.69223">
        <ele>1013.8474121094</ele>
        <time>2020-12-13T11:56:10Z</time>
      </trkpt>
      <trkpt lat="43.31319" lon="5.69222">
        <ele>1013.8474121094</ele>
        <time>2020-12-13T11:56:23Z</time>
      </trkpt>
      <trkpt lat="43.31313" lon="5.69223">
        <ele>1014.8088378906</ele>
        <time>2020-12-13T11:56:40Z</time>
      </trkpt>
      <trkpt lat="43.31314" lon="5.69224">
        <ele>1014.8088378906</ele>
        <time>2020-12-13T11:57:09Z</time>
      </trkpt>
      <trkpt lat="43.31308" lon="5.69218">
        <ele>1014.8088378906</ele>
        <time>2020-12-13T11:57:38Z</time>
      </trkpt>
      <trkpt lat="43.31302" lon="5.6922">
        <ele>1015.7702636719</ele>
        <time>2020-12-13T11:57:51Z</time>
      </trkpt>
      <trkpt lat="43.31296" lon="5.6922">
        <ele>1015.2895507812</ele>
        <time>2020-12-13T11:57:57Z</time>
      </trkpt>
      <trkpt lat="43.31288" lon="5.69217">
        <ele>1014.8088378906</ele>
        <time>2020-12-13T11:58:10Z</time>
      </trkpt>
      <trkpt lat="43.31281" lon="5.69212">
        <ele>1011.9250488281</ele>
        <time>2020-12-13T11:58:24Z</time>
      </trkpt>
      <trkpt lat="43.31282" lon="5.69221">
        <ele>1008.5603027344</ele>
        <time>2020-12-13T11:58:38Z</time>
      </trkpt>
      <trkpt lat="43.31277" lon="5.69229">
        <ele>1006.6376953125</ele>
        <time>2020-12-13T11:58:55Z</time>
      </trkpt>
      <trkpt lat="43.31275" lon="5.69232">
        <ele>1004.2346191406</ele>
        <time>2020-12-13T11:59:09Z</time>
      </trkpt>
      <trkpt lat="43.31269" lon="5.69239">
        <ele>1001.8310546875</ele>
        <time>2020-12-13T11:59:24Z</time>
      </trkpt>
      <trkpt lat="43.31262" lon="5.69243">
        <ele>1000.8696289062</ele>
        <time>2020-12-13T11:59:36Z</time>
      </trkpt>
      <trkpt lat="43.31262" lon="5.69243">
        <ele>1000.3891601562</ele>
        <time>2020-12-13T11:59:49Z</time>
      </trkpt>
      <trkpt lat="43.31254" lon="5.69249">
        <ele>999.90844726562</ele>
        <time>2020-12-13T12:00:03Z</time>
      </trkpt>
      <trkpt lat="43.31252" lon="5.69252">
        <ele>998.94702148438</ele>
        <time>2020-12-13T12:00:18Z</time>
      </trkpt>
      <trkpt lat="43.31249" lon="5.69245">
        <ele>997.98583984375</ele>
        <time>2020-12-13T12:00:33Z</time>
      </trkpt>
      <trkpt lat="43.31248" lon="5.69242">
        <ele>997.98583984375</ele>
        <time>2020-12-13T12:00:52Z</time>
      </trkpt>
      <trkpt lat="43.31244" lon="5.69233">
        <ele>997.98583984375</ele>
        <time>2020-12-13T12:01:07Z</time>
      </trkpt>
      <trkpt lat="43.31243" lon="5.69229">
        <ele>999.427734375</ele>
        <time>2020-12-13T12:02:01Z</time>
      </trkpt>
      <trkpt lat="43.31239" lon="5.692">
        <ele>1002.7922363281</ele>
        <time>2020-12-13T12:02:20Z</time>
      </trkpt>
      <trkpt lat="43.31234" lon="5.69172">
        <ele>1003.7536621094</ele>
        <time>2020-12-13T12:02:39Z</time>
      </trkpt>
      <trkpt lat="43.3123" lon="5.69153">
        <ele>1004.7150878906</ele>
        <time>2020-12-13T12:02:53Z</time>
      </trkpt>
      <trkpt lat="43.31227" lon="5.69143">
        <ele>1005.1958007812</ele>
        <time>2020-12-13T12:03:01Z</time>
      </trkpt>
      <trkpt lat="43.31226" lon="5.69129">
        <ele>1004.7150878906</ele>
        <time>2020-12-13T12:03:12Z</time>
      </trkpt>
      <trkpt lat="43.3122" lon="5.69117">
        <ele>1007.5991210938</ele>
        <time>2020-12-13T12:03:23Z</time>
      </trkpt>
      <trkpt lat="43.31213" lon="5.69096">
        <ele>1008.5603027344</ele>
        <time>2020-12-13T12:03:40Z</time>
      </trkpt>
      <trkpt lat="43.31206" lon="5.69081">
        <ele>1010.4829101562</ele>
        <time>2020-12-13T12:03:55Z</time>
      </trkpt>
      <trkpt lat="43.31196" lon="5.6906">
        <ele>1014.328125</ele>
        <time>2020-12-13T12:04:11Z</time>
      </trkpt>
      <trkpt lat="43.31194" lon="5.69038">
        <ele>1016.2507324219</ele>
        <time>2020-12-13T12:04:29Z</time>
      </trkpt>
      <trkpt lat="43.31193" lon="5.69015">
        <ele>1018.1733398438</ele>
        <time>2020-12-13T12:04:48Z</time>
      </trkpt>
      <trkpt lat="43.3119" lon="5.69016">
        <ele>1018.6540527344</ele>
        <time>2020-12-13T12:04:54Z</time>
      </trkpt>
      <trkpt lat="43.31191" lon="5.6902">
        <ele>1018.1733398438</ele>
        <time>2020-12-13T12:04:57Z</time>
      </trkpt>
      <trkpt lat="43.31193" lon="5.69025">
        <ele>1017.2121582031</ele>
        <time>2020-12-13T12:05:00Z</time>
      </trkpt>
      <trkpt lat="43.31189" lon="5.69029">
        <ele>1016.2507324219</ele>
        <time>2020-12-13T12:05:09Z</time>
      </trkpt>
      <trkpt lat="43.3118" lon="5.69013">
        <ele>1015.2895507812</ele>
        <time>2020-12-13T12:05:25Z</time>
      </trkpt>
      <trkpt lat="43.31174" lon="5.69005">
        <ele>1016.7314453125</ele>
        <time>2020-12-13T12:05:32Z</time>
      </trkpt>
      <trkpt lat="43.31167" lon="5.68999">
        <ele>1016.2507324219</ele>
        <time>2020-12-13T12:05:45Z</time>
      </trkpt>
      <trkpt lat="43.31168" lon="5.68981">
        <ele>1017.6926269531</ele>
        <time>2020-12-13T12:06:00Z</time>
      </trkpt>
      <trkpt lat="43.31167" lon="5.68954">
        <ele>1017.2121582031</ele>
        <time>2020-12-13T12:06:21Z</time>
      </trkpt>
      <trkpt lat="43.31163" lon="5.68949">
        <ele>1017.2121582031</ele>
        <time>2020-12-13T12:06:30Z</time>
      </trkpt>
      <trkpt lat="43.31158" lon="5.6895">
        <ele>1011.9250488281</ele>
        <time>2020-12-13T12:06:44Z</time>
      </trkpt>
      <trkpt lat="43.31154" lon="5.68947">
        <ele>1013.3669433594</ele>
        <time>2020-12-13T12:06:57Z</time>
      </trkpt>
      <trkpt lat="43.31152" lon="5.6895">
        <ele>1013.8474121094</ele>
        <time>2020-12-13T12:07:20Z</time>
      </trkpt>
      <trkpt lat="43.3115" lon="5.68944">
        <ele>1012.4055175781</ele>
        <time>2020-12-13T12:07:33Z</time>
      </trkpt>
      <trkpt lat="43.31151" lon="5.68941">
        <ele>1010.9636230469</ele>
        <time>2020-12-13T12:07:47Z</time>
      </trkpt>
      <trkpt lat="43.31149" lon="5.68929">
        <ele>1012.4055175781</ele>
        <time>2020-12-13T12:08:18Z</time>
      </trkpt>
      <trkpt lat="43.31157" lon="5.68922">
        <ele>1015.7702636719</ele>
        <time>2020-12-13T12:08:33Z</time>
      </trkpt>
      <trkpt lat="43.31161" lon="5.68912">
        <ele>1017.2121582031</ele>
        <time>2020-12-13T12:08:46Z</time>
      </trkpt>
      <trkpt lat="43.31163" lon="5.68901">
        <ele>1018.1733398438</ele>
        <time>2020-12-13T12:08:55Z</time>
      </trkpt>
      <trkpt lat="43.31157" lon="5.68886">
        <ele>1018.1733398438</ele>
        <time>2020-12-13T12:09:12Z</time>
      </trkpt>
      <trkpt lat="43.31152" lon="5.68877">
        <ele>1017.6926269531</ele>
        <time>2020-12-13T12:09:27Z</time>
      </trkpt>
      <trkpt lat="43.31144" lon="5.6886">
        <ele>1013.8474121094</ele>
        <time>2020-12-13T12:09:45Z</time>
      </trkpt>
      <trkpt lat="43.31141" lon="5.68853">
        <ele>1013.8474121094</ele>
        <time>2020-12-13T12:09:55Z</time>
      </trkpt>
      <trkpt lat="43.31131" lon="5.68837">
        <ele>1011.9250488281</ele>
        <time>2020-12-13T12:10:12Z</time>
      </trkpt>
      <trkpt lat="43.3113" lon="5.68832">
        <ele>1012.8862304688</ele>
        <time>2020-12-13T12:10:26Z</time>
      </trkpt>
      <trkpt lat="43.31123" lon="5.68826">
        <ele>1011.4443359375</ele>
        <time>2020-12-13T12:10:56Z</time>
      </trkpt>
      <trkpt lat="43.31121" lon="5.68822">
        <ele>1010.4829101562</ele>
        <time>2020-12-13T12:11:05Z</time>
      </trkpt>
      <trkpt lat="43.31113" lon="5.68819">
        <ele>1007.5991210938</ele>
        <time>2020-12-13T12:11:19Z</time>
      </trkpt>
      <trkpt lat="43.31108" lon="5.68819">
        <ele>1006.6376953125</ele>
        <time>2020-12-13T12:11:25Z</time>
      </trkpt>
      <trkpt lat="43.311" lon="5.68814">
        <ele>1006.6376953125</ele>
        <time>2020-12-13T12:11:39Z</time>
      </trkpt>
      <trkpt lat="43.31098" lon="5.68812">
        <ele>1006.6376953125</ele>
        <time>2020-12-13T12:11:49Z</time>
      </trkpt>
      <trkpt lat="43.31095" lon="5.688">
        <ele>1005.6765136719</ele>
        <time>2020-12-13T12:12:06Z</time>
      </trkpt>
      <trkpt lat="43.31095" lon="5.68799">
        <ele>1005.1958007812</ele>
        <time>2020-12-13T12:13:08Z</time>
      </trkpt>
      <trkpt lat="43.31095" lon="5.688">
        <ele>1005.1958007812</ele>
        <time>2020-12-13T12:14:29Z</time>
      </trkpt>
      <trkpt lat="43.31095" lon="5.688">
        <ele>1005.1958007812</ele>
        <time>2020-12-13T12:15:09Z</time>
      </trkpt>
      <trkpt lat="43.311" lon="5.68809">
        <ele>1005.1958007812</ele>
        <time>2020-12-13T12:18:50Z</time>
      </trkpt>
      <trkpt lat="43.31107" lon="5.68819">
        <ele>1006.1569824219</ele>
        <time>2020-12-13T12:19:08Z</time>
      </trkpt>
      <trkpt lat="43.31106" lon="5.6882">
        <ele>1005.1958007812</ele>
        <time>2020-12-13T12:19:38Z</time>
      </trkpt>
      <trkpt lat="43.31102" lon="5.6882">
        <ele>1006.6376953125</ele>
        <time>2020-12-13T13:04:17Z</time>
      </trkpt>
      <trkpt lat="43.31104" lon="5.68821">
        <ele>1007.5991210938</ele>
        <time>2020-12-13T13:04:37Z</time>
      </trkpt>
      <trkpt lat="43.31106" lon="5.68821">
        <ele>1009.5217285156</ele>
        <time>2020-12-13T13:04:55Z</time>
      </trkpt>
      <trkpt lat="43.31107" lon="5.68824">
        <ele>1012.4055175781</ele>
        <time>2020-12-13T13:05:47Z</time>
      </trkpt>
      <trkpt lat="43.3111" lon="5.68825">
        <ele>1012.8862304688</ele>
        <time>2020-12-13T13:06:04Z</time>
      </trkpt>
      <trkpt lat="43.31112" lon="5.6883">
        <ele>1013.3669433594</ele>
        <time>2020-12-13T13:06:09Z</time>
      </trkpt>
      <trkpt lat="43.31118" lon="5.68842">
        <ele>1016.7314453125</ele>
        <time>2020-12-13T13:06:25Z</time>
      </trkpt>
      <trkpt lat="43.31127" lon="5.68841">
        <ele>1020.0961914062</ele>
        <time>2020-12-13T13:06:46Z</time>
      </trkpt>
      <trkpt lat="43.31127" lon="5.68843">
        <ele>1021.0576171875</ele>
        <time>2020-12-13T13:06:48Z</time>
      </trkpt>
      <trkpt lat="43.31138" lon="5.68858">
        <ele>1025.8640136719</ele>
        <time>2020-12-13T13:07:05Z</time>
      </trkpt>
      <trkpt lat="43.31142" lon="5.68869">
        <ele>1030.1899414062</ele>
        <time>2020-12-13T13:07:25Z</time>
      </trkpt>
      <trkpt lat="43.31142" lon="5.6887">
        <ele>1030.1899414062</ele>
        <time>2020-12-13T13:07:26Z</time>
      </trkpt>
      <trkpt lat="43.31143" lon="5.68876">
        <ele>1030.6706542969</ele>
        <time>2020-12-13T13:07:31Z</time>
      </trkpt>
      <trkpt lat="43.31147" lon="5.68888">
        <ele>1033.0737304688</ele>
        <time>2020-12-13T13:07:46Z</time>
      </trkpt>
      <trkpt lat="43.3115" lon="5.68895">
        <ele>1034.9965820312</ele>
        <time>2020-12-13T13:08:00Z</time>
      </trkpt>
      <trkpt lat="43.31155" lon="5.68901">
        <ele>1036.9191894531</ele>
        <time>2020-12-13T13:08:15Z</time>
      </trkpt>
      <trkpt lat="43.31158" lon="5.68899">
        <ele>1037.8806152344</ele>
        <time>2020-12-13T13:08:22Z</time>
      </trkpt>
      <trkpt lat="43.31162" lon="5.68911">
        <ele>1038.361328125</ele>
        <time>2020-12-13T13:08:36Z</time>
      </trkpt>
      <trkpt lat="43.3116" lon="5.68925">
        <ele>1035.4770507812</ele>
        <time>2020-12-13T13:08:51Z</time>
      </trkpt>
      <trkpt lat="43.31153" lon="5.68931">
        <ele>1034.9965820312</ele>
        <time>2020-12-13T13:09:05Z</time>
      </trkpt>
      <trkpt lat="43.31149" lon="5.68939">
        <ele>1032.1125488281</ele>
        <time>2020-12-13T13:09:19Z</time>
      </trkpt>
      <trkpt lat="43.31151" lon="5.68956">
        <ele>1024.9028320312</ele>
        <time>2020-12-13T13:09:38Z</time>
      </trkpt>
      <trkpt lat="43.31154" lon="5.68962">
        <ele>1022.9802246094</ele>
        <time>2020-12-13T13:09:50Z</time>
      </trkpt>
      <trkpt lat="43.31152" lon="5.68972">
        <ele>1021.0576171875</ele>
        <time>2020-12-13T13:10:03Z</time>
      </trkpt>
      <trkpt lat="43.31153" lon="5.68981">
        <ele>1015.2895507812</ele>
        <time>2020-12-13T13:10:17Z</time>
      </trkpt>
      <trkpt lat="43.31157" lon="5.68991">
        <ele>1009.5217285156</ele>
        <time>2020-12-13T13:10:32Z</time>
      </trkpt>
      <trkpt lat="43.31163" lon="5.69">
        <ele>1007.5991210938</ele>
        <time>2020-12-13T13:10:49Z</time>
      </trkpt>
      <trkpt lat="43.31168" lon="5.69007">
        <ele>1010.0021972656</ele>
        <time>2020-12-13T13:11:04Z</time>
      </trkpt>
      <trkpt lat="43.31174" lon="5.69019">
        <ele>1010.9636230469</ele>
        <time>2020-12-13T13:11:25Z</time>
      </trkpt>
      <trkpt lat="43.31181" lon="5.69032">
        <ele>1010.0021972656</ele>
        <time>2020-12-13T13:11:46Z</time>
      </trkpt>
      <trkpt lat="43.3119" lon="5.69048">
        <ele>1009.5217285156</ele>
        <time>2020-12-13T13:12:05Z</time>
      </trkpt>
      <trkpt lat="43.31198" lon="5.69087">
        <ele>1003.2729492188</ele>
        <time>2020-12-13T13:12:40Z</time>
      </trkpt>
      <trkpt lat="43.31205" lon="5.69104">
        <ele>998.94702148438</ele>
        <time>2020-12-13T13:12:56Z</time>
      </trkpt>
      <trkpt lat="43.31223" lon="5.69142">
        <ele>999.427734375</ele>
        <time>2020-12-13T13:13:27Z</time>
      </trkpt>
      <trkpt lat="43.3123" lon="5.69183">
        <ele>993.65991210938</ele>
        <time>2020-12-13T13:13:55Z</time>
      </trkpt>
      <trkpt lat="43.31235" lon="5.69212">
        <ele>990.29541015625</ele>
        <time>2020-12-13T13:14:16Z</time>
      </trkpt>
      <trkpt lat="43.31238" lon="5.69241">
        <ele>985.48852539062</ele>
        <time>2020-12-13T13:14:36Z</time>
      </trkpt>
      <trkpt lat="43.31242" lon="5.69276">
        <ele>983.08520507812</ele>
        <time>2020-12-13T13:15:00Z</time>
      </trkpt>
      <trkpt lat="43.31247" lon="5.69307">
        <ele>983.08520507812</ele>
        <time>2020-12-13T13:15:20Z</time>
      </trkpt>
      <trkpt lat="43.31251" lon="5.69335">
        <ele>986.93041992188</ele>
        <time>2020-12-13T13:15:39Z</time>
      </trkpt>
      <trkpt lat="43.31257" lon="5.69361">
        <ele>986.44995117188</ele>
        <time>2020-12-13T13:15:58Z</time>
      </trkpt>
      <trkpt lat="43.31267" lon="5.69396">
        <ele>990.77587890625</ele>
        <time>2020-12-13T13:16:23Z</time>
      </trkpt>
      <trkpt lat="43.3128" lon="5.69436">
        <ele>989.81469726562</ele>
        <time>2020-12-13T13:16:52Z</time>
      </trkpt>
      <trkpt lat="43.31284" lon="5.69454">
        <ele>989.333984375</ele>
        <time>2020-12-13T13:17:09Z</time>
      </trkpt>
      <trkpt lat="43.31298" lon="5.69503">
        <ele>987.4111328125</ele>
        <time>2020-12-13T13:17:41Z</time>
      </trkpt>
      <trkpt lat="43.31307" lon="5.69536">
        <ele>984.52734375</ele>
        <time>2020-12-13T13:18:03Z</time>
      </trkpt>
      <trkpt lat="43.31312" lon="5.6955">
        <ele>985.48852539062</ele>
        <time>2020-12-13T13:18:14Z</time>
      </trkpt>
      <trkpt lat="43.31313" lon="5.69552">
        <ele>985.00805664062</ele>
        <time>2020-12-13T13:18:16Z</time>
      </trkpt>
      <trkpt lat="43.31319" lon="5.69576">
        <ele>984.04663085938</ele>
        <time>2020-12-13T13:18:31Z</time>
      </trkpt>
      <trkpt lat="43.31319" lon="5.69581">
        <ele>984.04663085938</ele>
        <time>2020-12-13T13:18:34Z</time>
      </trkpt>
      <trkpt lat="43.31327" lon="5.69604">
        <ele>982.60473632812</ele>
        <time>2020-12-13T13:18:47Z</time>
      </trkpt>
      <trkpt lat="43.31337" lon="5.69644">
        <ele>980.68212890625</ele>
        <time>2020-12-13T13:19:11Z</time>
      </trkpt>
      <trkpt lat="43.31346" lon="5.69676">
        <ele>977.79809570312</ele>
        <time>2020-12-13T13:19:31Z</time>
      </trkpt>
      <trkpt lat="43.31352" lon="5.69706">
        <ele>973.47241210938</ele>
        <time>2020-12-13T13:19:50Z</time>
      </trkpt>
      <trkpt lat="43.31354" lon="5.69743">
        <ele>972.51098632812</ele>
        <time>2020-12-13T13:20:14Z</time>
      </trkpt>
      <trkpt lat="43.31354" lon="5.69789">
        <ele>969.626953125</ele>
        <time>2020-12-13T13:20:42Z</time>
      </trkpt>
      <trkpt lat="43.31354" lon="5.69836">
        <ele>964.8203125</ele>
        <time>2020-12-13T13:21:10Z</time>
      </trkpt>
      <trkpt lat="43.31354" lon="5.69874">
        <ele>963.85888671875</ele>
        <time>2020-12-13T13:21:33Z</time>
      </trkpt>
      <trkpt lat="43.31354" lon="5.69899">
        <ele>962.89770507812</ele>
        <time>2020-12-13T13:21:49Z</time>
      </trkpt>
      <trkpt lat="43.31358" lon="5.69952">
        <ele>963.85888671875</ele>
        <time>2020-12-13T13:22:20Z</time>
      </trkpt>
      <trkpt lat="43.31363" lon="5.69992">
        <ele>970.107421875</ele>
        <time>2020-12-13T13:22:46Z</time>
      </trkpt>
      <trkpt lat="43.31366" lon="5.70022">
        <ele>971.54931640625</ele>
        <time>2020-12-13T13:23:06Z</time>
      </trkpt>
      <trkpt lat="43.31367" lon="5.70025">
        <ele>972.0302734375</ele>
        <time>2020-12-13T13:23:08Z</time>
      </trkpt>
      <trkpt lat="43.31369" lon="5.70061">
        <ele>971.54931640625</ele>
        <time>2020-12-13T13:23:30Z</time>
      </trkpt>
      <trkpt lat="43.31374" lon="5.70102">
        <ele>972.0302734375</ele>
        <time>2020-12-13T13:23:55Z</time>
      </trkpt>
      <trkpt lat="43.31385" lon="5.70143">
        <ele>972.51098632812</ele>
        <time>2020-12-13T13:24:22Z</time>
      </trkpt>
      <trkpt lat="43.31395" lon="5.70178">
        <ele>970.58813476562</ele>
        <time>2020-12-13T13:24:46Z</time>
      </trkpt>
      <trkpt lat="43.31405" lon="5.70206">
        <ele>969.626953125</ele>
        <time>2020-12-13T13:25:05Z</time>
      </trkpt>
      <trkpt lat="43.31414" lon="5.7023">
        <ele>972.0302734375</ele>
        <time>2020-12-13T13:25:23Z</time>
      </trkpt>
      <trkpt lat="43.3142" lon="5.70246">
        <ele>973.47241210938</ele>
        <time>2020-12-13T13:25:35Z</time>
      </trkpt>
      <trkpt lat="43.31431" lon="5.70285">
        <ele>973.95288085938</ele>
        <time>2020-12-13T13:26:01Z</time>
      </trkpt>
      <trkpt lat="43.31435" lon="5.70298">
        <ele>974.91430664062</ele>
        <time>2020-12-13T13:26:10Z</time>
      </trkpt>
      <trkpt lat="43.31445" lon="5.70322">
        <ele>979.720703125</ele>
        <time>2020-12-13T13:26:31Z</time>
      </trkpt>
      <trkpt lat="43.31451" lon="5.70349">
        <ele>978.27880859375</ele>
        <time>2020-12-13T13:26:47Z</time>
      </trkpt>
      <trkpt lat="43.3146" lon="5.70389">
        <ele>977.79809570312</ele>
        <time>2020-12-13T13:27:12Z</time>
      </trkpt>
      <trkpt lat="43.31466" lon="5.70437">
        <ele>977.79809570312</ele>
        <time>2020-12-13T13:27:40Z</time>
      </trkpt>
      <trkpt lat="43.31469" lon="5.70464">
        <ele>978.27880859375</ele>
        <time>2020-12-13T13:27:58Z</time>
      </trkpt>
      <trkpt lat="43.31475" lon="5.70491">
        <ele>980.20141601562</ele>
        <time>2020-12-13T13:28:16Z</time>
      </trkpt>
      <trkpt lat="43.31481" lon="5.70533">
        <ele>982.60473632812</ele>
        <time>2020-12-13T13:28:44Z</time>
      </trkpt>
      <trkpt lat="43.31485" lon="5.70556">
        <ele>985.96923828125</ele>
        <time>2020-12-13T13:29:00Z</time>
      </trkpt>
      <trkpt lat="43.31485" lon="5.70563">
        <ele>985.48852539062</ele>
        <time>2020-12-13T13:29:04Z</time>
      </trkpt>
      <trkpt lat="43.31488" lon="5.70599">
        <ele>985.96923828125</ele>
        <time>2020-12-13T13:29:26Z</time>
      </trkpt>
      <trkpt lat="43.31493" lon="5.70631">
        <ele>987.4111328125</ele>
        <time>2020-12-13T13:29:49Z</time>
      </trkpt>
      <trkpt lat="43.31493" lon="5.70635">
        <ele>987.89184570312</ele>
        <time>2020-12-13T13:29:51Z</time>
      </trkpt>
      <trkpt lat="43.31494" lon="5.70668">
        <ele>990.29541015625</ele>
        <time>2020-12-13T13:30:11Z</time>
      </trkpt>
      <trkpt lat="43.31496" lon="5.70704">
        <ele>992.21801757812</ele>
        <time>2020-12-13T13:30:34Z</time>
      </trkpt>
      <trkpt lat="43.31498" lon="5.70744">
        <ele>991.25659179688</ele>
        <time>2020-12-13T13:30:58Z</time>
      </trkpt>
      <trkpt lat="43.31504" lon="5.70771">
        <ele>993.65991210938</ele>
        <time>2020-12-13T13:31:16Z</time>
      </trkpt>
      <trkpt lat="43.31506" lon="5.708">
        <ele>994.62109375</ele>
        <time>2020-12-13T13:31:35Z</time>
      </trkpt>
      <trkpt lat="43.31506" lon="5.70803">
        <ele>994.140625</ele>
        <time>2020-12-13T13:31:37Z</time>
      </trkpt>
      <trkpt lat="43.31517" lon="5.7083">
        <ele>992.21801757812</ele>
        <time>2020-12-13T13:31:56Z</time>
      </trkpt>
      <trkpt lat="43.31534" lon="5.70836">
        <ele>994.140625</ele>
        <time>2020-12-13T13:32:11Z</time>
      </trkpt>
      <trkpt lat="43.31552" lon="5.7083">
        <ele>995.58251953125</ele>
        <time>2020-12-13T13:32:26Z</time>
      </trkpt>
      <trkpt lat="43.31563" lon="5.70818">
        <ele>997.0244140625</ele>
        <time>2020-12-13T13:32:39Z</time>
      </trkpt>
      <trkpt lat="43.31576" lon="5.70788">
        <ele>997.50512695312</ele>
        <time>2020-12-13T13:33:02Z</time>
      </trkpt>
      <trkpt lat="43.31576" lon="5.70756">
        <ele>996.06323242188</ele>
        <time>2020-12-13T13:33:23Z</time>
      </trkpt>
      <trkpt lat="43.31576" lon="5.70743">
        <ele>995.10180664062</ele>
        <time>2020-12-13T13:33:35Z</time>
      </trkpt>
      <trkpt lat="43.31576" lon="5.70714">
        <ele>993.17919921875</ele>
        <time>2020-12-13T13:33:54Z</time>
      </trkpt>
      <trkpt lat="43.31574" lon="5.7068">
        <ele>988.37280273438</ele>
        <time>2020-12-13T13:34:15Z</time>
      </trkpt>
      <trkpt lat="43.31574" lon="5.70654">
        <ele>985.96923828125</ele>
        <time>2020-12-13T13:34:31Z</time>
      </trkpt>
      <trkpt lat="43.31572" lon="5.70637">
        <ele>983.56591796875</ele>
        <time>2020-12-13T13:34:41Z</time>
      </trkpt>
      <trkpt lat="43.31562" lon="5.70602">
        <ele>980.20141601562</ele>
        <time>2020-12-13T13:35:04Z</time>
      </trkpt>
      <trkpt lat="43.31554" lon="5.70576">
        <ele>977.79809570312</ele>
        <time>2020-12-13T13:35:21Z</time>
      </trkpt>
      <trkpt lat="43.31551" lon="5.70546">
        <ele>974.91430664062</ele>
        <time>2020-12-13T13:35:39Z</time>
      </trkpt>
      <trkpt lat="43.31551" lon="5.70545">
        <ele>974.91430664062</ele>
        <time>2020-12-13T13:35:40Z</time>
      </trkpt>
      <trkpt lat="43.31551" lon="5.70536">
        <ele>972.99169921875</ele>
        <time>2020-12-13T13:35:45Z</time>
      </trkpt>
      <trkpt lat="43.3155" lon="5.7051">
        <ele>970.107421875</ele>
        <time>2020-12-13T13:36:02Z</time>
      </trkpt>
      <trkpt lat="43.3155" lon="5.70499">
        <ele>969.626953125</ele>
        <time>2020-12-13T13:36:09Z</time>
      </trkpt>
      <trkpt lat="43.3155" lon="5.70475">
        <ele>969.14624023438</ele>
        <time>2020-12-13T13:36:24Z</time>
      </trkpt>
      <trkpt lat="43.3155" lon="5.70435">
        <ele>969.14624023438</ele>
        <time>2020-12-13T13:36:48Z</time>
      </trkpt>
      <trkpt lat="43.31551" lon="5.70427">
        <ele>968.66552734375</ele>
        <time>2020-12-13T13:36:53Z</time>
      </trkpt>
      <trkpt lat="43.31554" lon="5.70413">
        <ele>968.18481445312</ele>
        <time>2020-12-13T13:37:02Z</time>
      </trkpt>
      <trkpt lat="43.31552" lon="5.70401">
        <ele>967.7041015625</ele>
        <time>2020-12-13T13:37:16Z</time>
      </trkpt>
      <trkpt lat="43.31552" lon="5.704">
        <ele>967.2236328125</ele>
        <time>2020-12-13T13:37:17Z</time>
      </trkpt>
      <trkpt lat="43.31547" lon="5.70374">
        <ele>966.74291992188</ele>
        <time>2020-12-13T13:37:34Z</time>
      </trkpt>
      <trkpt lat="43.31533" lon="5.70336">
        <ele>962.89770507812</ele>
        <time>2020-12-13T13:38:00Z</time>
      </trkpt>
      <trkpt lat="43.31527" lon="5.70319">
        <ele>960.49438476562</ele>
        <time>2020-12-13T13:38:13Z</time>
      </trkpt>
      <trkpt lat="43.31517" lon="5.70281">
        <ele>958.57177734375</ele>
        <time>2020-12-13T13:38:34Z</time>
      </trkpt>
      <trkpt lat="43.31521" lon="5.70258">
        <ele>957.1298828125</ele>
        <time>2020-12-13T13:38:49Z</time>
      </trkpt>
      <trkpt lat="43.31519" lon="5.70246">
        <ele>955.68774414062</ele>
        <time>2020-12-13T13:38:56Z</time>
      </trkpt>
      <trkpt lat="43.31521" lon="5.70233">
        <ele>953.76513671875</ele>
        <time>2020-12-13T13:39:04Z</time>
      </trkpt>
      <trkpt lat="43.3152" lon="5.70228">
        <ele>952.8037109375</ele>
        <time>2020-12-13T13:39:07Z</time>
      </trkpt>
      <trkpt lat="43.31517" lon="5.70192">
        <ele>949.919921875</ele>
        <time>2020-12-13T13:39:27Z</time>
      </trkpt>
      <trkpt lat="43.31522" lon="5.70159">
        <ele>947.5166015625</ele>
        <time>2020-12-13T13:39:47Z</time>
      </trkpt>
      <trkpt lat="43.31522" lon="5.70151">
        <ele>947.03588867188</ele>
        <time>2020-12-13T13:39:52Z</time>
      </trkpt>
      <trkpt lat="43.3152" lon="5.70144">
        <ele>946.55541992188</ele>
        <time>2020-12-13T13:39:56Z</time>
      </trkpt>
      <trkpt lat="43.31536" lon="5.70112">
        <ele>940.30688476562</ele>
        <time>2020-12-13T13:40:21Z</time>
      </trkpt>
      <trkpt lat="43.31533" lon="5.70079">
        <ele>935.5</ele>
        <time>2020-12-13T13:40:42Z</time>
      </trkpt>
      <trkpt lat="43.31529" lon="5.70066">
        <ele>934.05810546875</ele>
        <time>2020-12-13T13:40:51Z</time>
      </trkpt>
      <trkpt lat="43.31511" lon="5.70044">
        <ele>931.17431640625</ele>
        <time>2020-12-13T13:41:10Z</time>
      </trkpt>
      <trkpt lat="43.31503" lon="5.70019">
        <ele>928.77099609375</ele>
        <time>2020-12-13T13:41:29Z</time>
      </trkpt>
      <trkpt lat="43.31498" lon="5.69995">
        <ele>925.40625</ele>
        <time>2020-12-13T13:41:44Z</time>
      </trkpt>
      <trkpt lat="43.31491" lon="5.69951">
        <ele>924.44506835938</ele>
        <time>2020-12-13T13:42:07Z</time>
      </trkpt>
      <trkpt lat="43.31491" lon="5.69949">
        <ele>924.44506835938</ele>
        <time>2020-12-13T13:42:08Z</time>
      </trkpt>
      <trkpt lat="43.31491" lon="5.69942">
        <ele>923.48364257812</ele>
        <time>2020-12-13T13:42:12Z</time>
      </trkpt>
      <trkpt lat="43.31488" lon="5.69901">
        <ele>921.08032226562</ele>
        <time>2020-12-13T13:42:34Z</time>
      </trkpt>
      <trkpt lat="43.31488" lon="5.6989">
        <ele>921.08032226562</ele>
        <time>2020-12-13T13:42:40Z</time>
      </trkpt>
      <trkpt lat="43.31498" lon="5.69846">
        <ele>917.71557617188</ele>
        <time>2020-12-13T13:43:06Z</time>
      </trkpt>
      <trkpt lat="43.31504" lon="5.69817">
        <ele>917.71557617188</ele>
        <time>2020-12-13T13:43:26Z</time>
      </trkpt>
      <trkpt lat="43.31501" lon="5.69786">
        <ele>915.3125</ele>
        <time>2020-12-13T13:43:46Z</time>
      </trkpt>
      <trkpt lat="43.31503" lon="5.69744">
        <ele>910.505859375</ele>
        <time>2020-12-13T13:44:12Z</time>
      </trkpt>
      <trkpt lat="43.31506" lon="5.69732">
        <ele>908.58325195312</ele>
        <time>2020-12-13T13:44:19Z</time>
      </trkpt>
      <trkpt lat="43.31507" lon="5.69718">
        <ele>904.73779296875</ele>
        <time>2020-12-13T13:44:36Z</time>
      </trkpt>
      <trkpt lat="43.31517" lon="5.69709">
        <ele>905.69921875</ele>
        <time>2020-12-13T13:45:04Z</time>
      </trkpt>
      <trkpt lat="43.31518" lon="5.69687">
        <ele>903.2958984375</ele>
        <time>2020-12-13T13:45:21Z</time>
      </trkpt>
      <trkpt lat="43.31514" lon="5.6965">
        <ele>899.45068359375</ele>
        <time>2020-12-13T13:45:43Z</time>
      </trkpt>
      <trkpt lat="43.31511" lon="5.69635">
        <ele>897.52807617188</ele>
        <time>2020-12-13T13:45:52Z</time>
      </trkpt>
      <trkpt lat="43.3151" lon="5.6962">
        <ele>896.08618164062</ele>
        <time>2020-12-13T13:46:00Z</time>
      </trkpt>
      <trkpt lat="43.31511" lon="5.69605">
        <ele>894.64404296875</ele>
        <time>2020-12-13T13:46:09Z</time>
      </trkpt>
      <trkpt lat="43.31519" lon="5.69582">
        <ele>891.76000976562</ele>
        <time>2020-12-13T13:46:25Z</time>
      </trkpt>
      <trkpt lat="43.31521" lon="5.69574">
        <ele>890.31811523438</ele>
        <time>2020-12-13T13:46:31Z</time>
      </trkpt>
      <trkpt lat="43.31527" lon="5.69555">
        <ele>886.95336914062</ele>
        <time>2020-12-13T13:46:44Z</time>
      </trkpt>
      <trkpt lat="43.31529" lon="5.6954">
        <ele>885.9921875</ele>
        <time>2020-12-13T13:46:54Z</time>
      </trkpt>
      <trkpt lat="43.31533" lon="5.69529">
        <ele>884.55029296875</ele>
        <time>2020-12-13T13:47:12Z</time>
      </trkpt>
      <trkpt lat="43.31536" lon="5.69503">
        <ele>887.91479492188</ele>
        <time>2020-12-13T13:47:29Z</time>
      </trkpt>
      <trkpt lat="43.31525" lon="5.69479">
        <ele>882.14697265625</ele>
        <time>2020-12-13T13:47:42Z</time>
      </trkpt>
      <trkpt lat="43.31528" lon="5.69463">
        <ele>881.18579101562</ele>
        <time>2020-12-13T13:47:53Z</time>
      </trkpt>
      <trkpt lat="43.31531" lon="5.69438">
        <ele>883.10815429688</ele>
        <time>2020-12-13T13:48:09Z</time>
      </trkpt>
      <trkpt lat="43.31534" lon="5.69412">
        <ele>886.47290039062</ele>
        <time>2020-12-13T13:48:23Z</time>
      </trkpt>
      <trkpt lat="43.31534" lon="5.69405">
        <ele>886.47290039062</ele>
        <time>2020-12-13T13:48:28Z</time>
      </trkpt>
      <trkpt lat="43.31533" lon="5.69396">
        <ele>886.47290039062</ele>
        <time>2020-12-13T13:48:33Z</time>
      </trkpt>
      <trkpt lat="43.3153" lon="5.69347">
        <ele>888.3955078125</ele>
        <time>2020-12-13T13:49:00Z</time>
      </trkpt>
      <trkpt lat="43.3153" lon="5.69338">
        <ele>889.35668945312</ele>
        <time>2020-12-13T13:49:05Z</time>
      </trkpt>
      <trkpt lat="43.3153" lon="5.6933">
        <ele>889.35668945312</ele>
        <time>2020-12-13T13:49:10Z</time>
      </trkpt>
      <trkpt lat="43.31527" lon="5.69322">
        <ele>889.83740234375</ele>
        <time>2020-12-13T13:49:14Z</time>
      </trkpt>
      <trkpt lat="43.3152" lon="5.6929">
        <ele>890.31811523438</ele>
        <time>2020-12-13T13:49:33Z</time>
      </trkpt>
      <trkpt lat="43.31514" lon="5.69255">
        <ele>888.3955078125</ele>
        <time>2020-12-13T13:49:53Z</time>
      </trkpt>
      <trkpt lat="43.3151" lon="5.69229">
        <ele>888.3955078125</ele>
        <time>2020-12-13T13:50:10Z</time>
      </trkpt>
      <trkpt lat="43.31507" lon="5.69208">
        <ele>888.87622070312</ele>
        <time>2020-12-13T13:50:22Z</time>
      </trkpt>
      <trkpt lat="43.31507" lon="5.69206">
        <ele>887.91479492188</ele>
        <time>2020-12-13T13:50:24Z</time>
      </trkpt>
      <trkpt lat="43.31506" lon="5.69194">
        <ele>885.51147460938</ele>
        <time>2020-12-13T13:50:32Z</time>
      </trkpt>
      <trkpt lat="43.31505" lon="5.69186">
        <ele>885.03100585938</ele>
        <time>2020-12-13T13:50:36Z</time>
      </trkpt>
      <trkpt lat="43.31502" lon="5.69156">
        <ele>889.35668945312</ele>
        <time>2020-12-13T13:50:53Z</time>
      </trkpt>
      <trkpt lat="43.31499" lon="5.69134">
        <ele>889.35668945312</ele>
        <time>2020-12-13T13:51:08Z</time>
      </trkpt>
      <trkpt lat="43.315" lon="5.69128">
        <ele>889.83740234375</ele>
        <time>2020-12-13T13:51:11Z</time>
      </trkpt>
      <trkpt lat="43.31498" lon="5.69115">
        <ele>887.91479492188</ele>
        <time>2020-12-13T13:51:18Z</time>
      </trkpt>
      <trkpt lat="43.31502" lon="5.69104">
        <ele>886.95336914062</ele>
        <time>2020-12-13T13:51:25Z</time>
      </trkpt>
      <trkpt lat="43.31503" lon="5.69099">
        <ele>887.43408203125</ele>
        <time>2020-12-13T13:51:28Z</time>
      </trkpt>
      <trkpt lat="43.31506" lon="5.69093">
        <ele>887.43408203125</ele>
        <time>2020-12-13T13:51:32Z</time>
      </trkpt>
      <trkpt lat="43.31508" lon="5.69085">
        <ele>887.43408203125</ele>
        <time>2020-12-13T13:51:37Z</time>
      </trkpt>
      <trkpt lat="43.31507" lon="5.69074">
        <ele>885.51147460938</ele>
        <time>2020-12-13T13:51:43Z</time>
      </trkpt>
      <trkpt lat="43.31506" lon="5.69065">
        <ele>883.5888671875</ele>
        <time>2020-12-13T13:51:47Z</time>
      </trkpt>
      <trkpt lat="43.31506" lon="5.69044">
        <ele>881.18579101562</ele>
        <time>2020-12-13T13:51:58Z</time>
      </trkpt>
      <trkpt lat="43.31509" lon="5.69038">
        <ele>879.74365234375</ele>
        <time>2020-12-13T13:52:02Z</time>
      </trkpt>
      <trkpt lat="43.3151" lon="5.69029">
        <ele>879.26293945312</ele>
        <time>2020-12-13T13:52:07Z</time>
      </trkpt>
      <trkpt lat="43.3153" lon="5.69007">
        <ele>877.82104492188</ele>
        <time>2020-12-13T13:52:27Z</time>
      </trkpt>
      <trkpt lat="43.3154" lon="5.69004">
        <ele>878.78247070312</ele>
        <time>2020-12-13T13:52:38Z</time>
      </trkpt>
      <trkpt lat="43.31544" lon="5.69">
        <ele>876.37915039062</ele>
        <time>2020-12-13T13:52:44Z</time>
      </trkpt>
      <trkpt lat="43.31543" lon="5.68993">
        <ele>879.74365234375</ele>
        <time>2020-12-13T13:52:50Z</time>
      </trkpt>
      <trkpt lat="43.31542" lon="5.68987">
        <ele>880.22436523438</ele>
        <time>2020-12-13T13:52:54Z</time>
      </trkpt>
      <trkpt lat="43.3155" lon="5.68974">
        <ele>880.705078125</ele>
        <time>2020-12-13T13:53:10Z</time>
      </trkpt>
      <trkpt lat="43.31551" lon="5.68984">
        <ele>877.34057617188</ele>
        <time>2020-12-13T13:53:38Z</time>
      </trkpt>
      <trkpt lat="43.31553" lon="5.68989">
        <ele>876.37915039062</ele>
        <time>2020-12-13T13:53:42Z</time>
      </trkpt>
      <trkpt lat="43.3156" lon="5.69">
        <ele>873.9755859375</ele>
        <time>2020-12-13T13:53:54Z</time>
      </trkpt>
      <trkpt lat="43.31563" lon="5.68996">
        <ele>873.01440429688</ele>
        <time>2020-12-13T13:53:58Z</time>
      </trkpt>
      <trkpt lat="43.31565" lon="5.68991">
        <ele>873.9755859375</ele>
        <time>2020-12-13T13:54:02Z</time>
      </trkpt>
      <trkpt lat="43.3157" lon="5.6899">
        <ele>875.89819335938</ele>
        <time>2020-12-13T13:54:15Z</time>
      </trkpt>
      <trkpt lat="43.31571" lon="5.68989">
        <ele>878.3017578125</ele>
        <time>2020-12-13T13:54:36Z</time>
      </trkpt>
      <trkpt lat="43.31566" lon="5.68983">
        <ele>878.78247070312</ele>
        <time>2020-12-13T13:54:41Z</time>
      </trkpt>
      <trkpt lat="43.31561" lon="5.6898">
        <ele>879.74365234375</ele>
        <time>2020-12-13T13:54:45Z</time>
      </trkpt>
      <trkpt lat="43.31559" lon="5.68976">
        <ele>880.22436523438</ele>
        <time>2020-12-13T13:54:48Z</time>
      </trkpt>
      <trkpt lat="43.31556" lon="5.68972">
        <ele>879.74365234375</ele>
        <time>2020-12-13T13:55:08Z</time>
      </trkpt>
      <trkpt lat="43.3156" lon="5.68974">
        <ele>878.3017578125</ele>
        <time>2020-12-13T13:57:16Z</time>
      </trkpt>
      <trkpt lat="43.31562" lon="5.68969">
        <ele>876.85986328125</ele>
        <time>2020-12-13T13:57:49Z</time>
      </trkpt>
      <trkpt lat="43.31581" lon="5.68967">
        <ele>877.82104492188</ele>
        <time>2020-12-13T13:58:05Z</time>
      </trkpt>
      <trkpt lat="43.31596" lon="5.68977">
        <ele>877.82104492188</ele>
        <time>2020-12-13T13:58:22Z</time>
      </trkpt>
      <trkpt lat="43.31618" lon="5.68991">
        <ele>875.89819335938</ele>
        <time>2020-12-13T13:58:42Z</time>
      </trkpt>
      <trkpt lat="43.3162" lon="5.6899">
        <ele>875.41748046875</ele>
        <time>2020-12-13T13:58:44Z</time>
      </trkpt>
      <trkpt lat="43.31622" lon="5.68992">
        <ele>874.93701171875</ele>
        <time>2020-12-13T13:58:47Z</time>
      </trkpt>
      <trkpt lat="43.31627" lon="5.68995">
        <ele>874.45629882812</ele>
        <time>2020-12-13T13:58:51Z</time>
      </trkpt>
      <trkpt lat="43.31642" lon="5.69003">
        <ele>871.572265625</ele>
        <time>2020-12-13T13:59:08Z</time>
      </trkpt>
      <trkpt lat="43.31654" lon="5.6901">
        <ele>868.6884765625</ele>
        <time>2020-12-13T13:59:19Z</time>
      </trkpt>
      <trkpt lat="43.31668" lon="5.6902">
        <ele>866.76586914062</ele>
        <time>2020-12-13T13:59:33Z</time>
      </trkpt>
      <trkpt lat="43.31672" lon="5.69028">
        <ele>865.8046875</ele>
        <time>2020-12-13T13:59:39Z</time>
      </trkpt>
      <trkpt lat="43.31683" lon="5.69052">
        <ele>863.4013671875</ele>
        <time>2020-12-13T13:59:57Z</time>
      </trkpt>
      <trkpt lat="43.31688" lon="5.69055">
        <ele>863.4013671875</ele>
        <time>2020-12-13T14:00:02Z</time>
      </trkpt>
      <trkpt lat="43.31694" lon="5.69054">
        <ele>864.36254882812</ele>
        <time>2020-12-13T14:00:06Z</time>
      </trkpt>
      <trkpt lat="43.31708" lon="5.69029">
        <ele>864.36254882812</ele>
        <time>2020-12-13T14:00:26Z</time>
      </trkpt>
      <trkpt lat="43.31712" lon="5.69023">
        <ele>864.36254882812</ele>
        <time>2020-12-13T14:00:31Z</time>
      </trkpt>
      <trkpt lat="43.31716" lon="5.69012">
        <ele>866.28515625</ele>
        <time>2020-12-13T14:00:39Z</time>
      </trkpt>
      <trkpt lat="43.31723" lon="5.69008">
        <ele>867.24658203125</ele>
        <time>2020-12-13T14:00:45Z</time>
      </trkpt>
      <trkpt lat="43.31724" lon="5.69004">
        <ele>867.24658203125</ele>
        <time>2020-12-13T14:00:48Z</time>
      </trkpt>
      <trkpt lat="43.31724" lon="5.68999">
        <ele>867.72705078125</ele>
        <time>2020-12-13T14:00:53Z</time>
      </trkpt>
      <trkpt lat="43.31732" lon="5.68983">
        <ele>869.16918945312</ele>
        <time>2020-12-13T14:01:07Z</time>
      </trkpt>
      <trkpt lat="43.31737" lon="5.68981">
        <ele>872.05297851562</ele>
        <time>2020-12-13T14:01:23Z</time>
      </trkpt>
      <trkpt lat="43.31739" lon="5.68981">
        <ele>875.89819335938</ele>
        <time>2020-12-13T14:01:38Z</time>
      </trkpt>
      <trkpt lat="43.3175" lon="5.68971">
        <ele>873.9755859375</ele>
        <time>2020-12-13T14:01:56Z</time>
      </trkpt>
      <trkpt lat="43.31752" lon="5.68971">
        <ele>872.05297851562</ele>
        <time>2020-12-13T14:02:11Z</time>
      </trkpt>
      <trkpt lat="43.31757" lon="5.68966">
        <ele>871.091796875</ele>
        <time>2020-12-13T14:02:21Z</time>
      </trkpt>
      <trkpt lat="43.31757" lon="5.6895">
        <ele>870.13037109375</ele>
        <time>2020-12-13T14:02:37Z</time>
      </trkpt>
      <trkpt lat="43.31759" lon="5.68944">
        <ele>869.64990234375</ele>
        <time>2020-12-13T14:02:43Z</time>
      </trkpt>
      <trkpt lat="43.31764" lon="5.68933">
        <ele>866.76586914062</ele>
        <time>2020-12-13T14:02:58Z</time>
      </trkpt>
      <trkpt lat="43.31766" lon="5.68933">
        <ele>866.28515625</ele>
        <time>2020-12-13T14:03:03Z</time>
      </trkpt>
      <trkpt lat="43.31768" lon="5.6893">
        <ele>865.32397460938</ele>
        <time>2020-12-13T14:03:20Z</time>
      </trkpt>
      <trkpt lat="43.31768" lon="5.68928">
        <ele>864.84326171875</ele>
        <time>2020-12-13T14:03:37Z</time>
      </trkpt>
      <trkpt lat="43.31773" lon="5.68921">
        <ele>863.4013671875</ele>
        <time>2020-12-13T14:04:03Z</time>
      </trkpt>
      <trkpt lat="43.31781" lon="5.689">
        <ele>858.11401367188</ele>
        <time>2020-12-13T14:04:21Z</time>
      </trkpt>
      <trkpt lat="43.3178" lon="5.68897">
        <ele>857.15258789062</ele>
        <time>2020-12-13T14:04:24Z</time>
      </trkpt>
      <trkpt lat="43.3178" lon="5.68884">
        <ele>854.74926757812</ele>
        <time>2020-12-13T14:04:42Z</time>
      </trkpt>
      <trkpt lat="43.31776" lon="5.68877">
        <ele>852.82666015625</ele>
        <time>2020-12-13T14:05:02Z</time>
      </trkpt>
      <trkpt lat="43.31774" lon="5.68872">
        <ele>851.384765625</ele>
        <time>2020-12-13T14:05:07Z</time>
      </trkpt>
      <trkpt lat="43.31768" lon="5.68853">
        <ele>850.90405273438</ele>
        <time>2020-12-13T14:05:21Z</time>
      </trkpt>
      <trkpt lat="43.31759" lon="5.68829">
        <ele>847.53955078125</ele>
        <time>2020-12-13T14:05:40Z</time>
      </trkpt>
      <trkpt lat="43.31751" lon="5.68816">
        <ele>844.17504882812</ele>
        <time>2020-12-13T14:05:58Z</time>
      </trkpt>
      <trkpt lat="43.31743" lon="5.68798">
        <ele>839.84887695312</ele>
        <time>2020-12-13T14:06:15Z</time>
      </trkpt>
      <trkpt lat="43.31742" lon="5.68797">
        <ele>839.84887695312</ele>
        <time>2020-12-13T14:06:16Z</time>
      </trkpt>
      <trkpt lat="43.31739" lon="5.68786">
        <ele>838.40698242188</ele>
        <time>2020-12-13T14:06:27Z</time>
      </trkpt>
      <trkpt lat="43.31737" lon="5.68783">
        <ele>838.40698242188</ele>
        <time>2020-12-13T14:06:30Z</time>
      </trkpt>
      <trkpt lat="43.31732" lon="5.68767">
        <ele>838.40698242188</ele>
        <time>2020-12-13T14:06:52Z</time>
      </trkpt>
      <trkpt lat="43.3173" lon="5.6875">
        <ele>836.96484375</ele>
        <time>2020-12-13T14:07:29Z</time>
      </trkpt>
      <trkpt lat="43.31732" lon="5.68728">
        <ele>833.60034179688</ele>
        <time>2020-12-13T14:07:48Z</time>
      </trkpt>
      <trkpt lat="43.31735" lon="5.68692">
        <ele>829.2744140625</ele>
        <time>2020-12-13T14:08:16Z</time>
      </trkpt>
      <trkpt lat="43.31736" lon="5.68681">
        <ele>829.2744140625</ele>
        <time>2020-12-13T14:08:37Z</time>
      </trkpt>
      <trkpt lat="43.31736" lon="5.68669">
        <ele>829.75512695312</ele>
        <time>2020-12-13T14:08:56Z</time>
      </trkpt>
      <trkpt lat="43.31746" lon="5.68666">
        <ele>830.23583984375</ele>
        <time>2020-12-13T14:09:04Z</time>
      </trkpt>
      <trkpt lat="43.3175" lon="5.68683">
        <ele>825.42895507812</ele>
        <time>2020-12-13T14:09:24Z</time>
      </trkpt>
      <trkpt lat="43.31752" lon="5.68701">
        <ele>823.50659179688</ele>
        <time>2020-12-13T14:09:42Z</time>
      </trkpt>
      <trkpt lat="43.31752" lon="5.68712">
        <ele>821.10327148438</ele>
        <time>2020-12-13T14:10:02Z</time>
      </trkpt>
      <trkpt lat="43.31753" lon="5.68722">
        <ele>819.66137695312</ele>
        <time>2020-12-13T14:10:13Z</time>
      </trkpt>
      <trkpt lat="43.31754" lon="5.68731">
        <ele>817.73852539062</ele>
        <time>2020-12-13T14:10:25Z</time>
      </trkpt>
      <trkpt lat="43.3176" lon="5.68737">
        <ele>818.21923828125</ele>
        <time>2020-12-13T14:10:33Z</time>
      </trkpt>
      <trkpt lat="43.31763" lon="5.68738">
        <ele>817.73852539062</ele>
        <time>2020-12-13T14:10:37Z</time>
      </trkpt>
      <trkpt lat="43.31763" lon="5.68746">
        <ele>817.73852539062</ele>
        <time>2020-12-13T14:10:42Z</time>
      </trkpt>
      <trkpt lat="43.31766" lon="5.68747">
        <ele>817.73852539062</ele>
        <time>2020-12-13T14:10:45Z</time>
      </trkpt>
      <trkpt lat="43.31768" lon="5.68752">
        <ele>817.73852539062</ele>
        <time>2020-12-13T14:10:50Z</time>
      </trkpt>
      <trkpt lat="43.31769" lon="5.68754">
        <ele>817.25805664062</ele>
        <time>2020-12-13T14:10:53Z</time>
      </trkpt>
      <trkpt lat="43.31774" lon="5.68756">
        <ele>817.25805664062</ele>
        <time>2020-12-13T14:10:56Z</time>
      </trkpt>
      <trkpt lat="43.31793" lon="5.68754">
        <ele>813.89331054688</ele>
        <time>2020-12-13T14:11:10Z</time>
      </trkpt>
      <trkpt lat="43.31802" lon="5.68754">
        <ele>813.41284179688</ele>
        <time>2020-12-13T14:11:22Z</time>
      </trkpt>
      <trkpt lat="43.31808" lon="5.68758">
        <ele>813.89331054688</ele>
        <time>2020-12-13T14:11:42Z</time>
      </trkpt>
      <trkpt lat="43.31821" lon="5.68755">
        <ele>811.970703125</ele>
        <time>2020-12-13T14:11:54Z</time>
      </trkpt>
      <trkpt lat="43.31828" lon="5.68748">
        <ele>809.08666992188</ele>
        <time>2020-12-13T14:12:08Z</time>
      </trkpt>
      <trkpt lat="43.31832" lon="5.68742">
        <ele>808.12548828125</ele>
        <time>2020-12-13T14:12:15Z</time>
      </trkpt>
      <trkpt lat="43.31835" lon="5.68736">
        <ele>808.12548828125</ele>
        <time>2020-12-13T14:12:20Z</time>
      </trkpt>
      <trkpt lat="43.31838" lon="5.68734">
        <ele>807.64477539062</ele>
        <time>2020-12-13T14:12:24Z</time>
      </trkpt>
      <trkpt lat="43.31842" lon="5.68731">
        <ele>808.60595703125</ele>
        <time>2020-12-13T14:12:30Z</time>
      </trkpt>
      <trkpt lat="43.31855" lon="5.68718">
        <ele>811.970703125</ele>
        <time>2020-12-13T14:12:45Z</time>
      </trkpt>
      <trkpt lat="43.31861" lon="5.68712">
        <ele>815.81616210938</ele>
        <time>2020-12-13T14:12:56Z</time>
      </trkpt>
      <trkpt lat="43.31889" lon="5.68707">
        <ele>811.48999023438</ele>
        <time>2020-12-13T14:13:17Z</time>
      </trkpt>
      <trkpt lat="43.31905" lon="5.68703">
        <ele>804.7607421875</ele>
        <time>2020-12-13T14:13:34Z</time>
      </trkpt>
      <trkpt lat="43.31915" lon="5.68697">
        <ele>803.79956054688</ele>
        <time>2020-12-13T14:13:51Z</time>
      </trkpt>
      <trkpt lat="43.31922" lon="5.68694">
        <ele>804.7607421875</ele>
        <time>2020-12-13T14:13:58Z</time>
      </trkpt>
      <trkpt lat="43.31924" lon="5.68694">
        <ele>804.7607421875</ele>
        <time>2020-12-13T14:14:00Z</time>
      </trkpt>
      <trkpt lat="43.31932" lon="5.68693">
        <ele>803.31884765625</ele>
        <time>2020-12-13T14:14:09Z</time>
      </trkpt>
      <trkpt lat="43.31928" lon="5.68701">
        <ele>804.7607421875</ele>
        <time>2020-12-13T14:14:25Z</time>
      </trkpt>
      <trkpt lat="43.31899" lon="5.68721">
        <ele>814.3740234375</ele>
        <time>2020-12-13T14:15:46Z</time>
      </trkpt>
      <trkpt lat="43.31904" lon="5.68716">
        <ele>818.21923828125</ele>
        <time>2020-12-13T14:16:22Z</time>
      </trkpt>
      <trkpt lat="43.31932" lon="5.68712">
        <ele>816.77734375</ele>
        <time>2020-12-13T14:16:44Z</time>
      </trkpt>
      <trkpt lat="43.31942" lon="5.68706">
        <ele>813.89331054688</ele>
        <time>2020-12-13T14:17:48Z</time>
      </trkpt>
      <trkpt lat="43.31944" lon="5.68705">
        <ele>809.08666992188</ele>
        <time>2020-12-13T14:18:15Z</time>
      </trkpt>
      <trkpt lat="43.31948" lon="5.68716">
        <ele>804.7607421875</ele>
        <time>2020-12-13T14:18:41Z</time>
      </trkpt>
      <trkpt lat="43.3195" lon="5.6873">
        <ele>798.99291992188</ele>
        <time>2020-12-13T14:18:55Z</time>
      </trkpt>
      <trkpt lat="43.31951" lon="5.68735">
        <ele>797.55102539062</ele>
        <time>2020-12-13T14:18:59Z</time>
      </trkpt>
      <trkpt lat="43.31954" lon="5.68746">
        <ele>793.70556640625</ele>
        <time>2020-12-13T14:19:08Z</time>
      </trkpt>
      <trkpt lat="43.31956" lon="5.68747">
        <ele>792.74438476562</ele>
        <time>2020-12-13T14:19:11Z</time>
      </trkpt>
      <trkpt lat="43.31959" lon="5.68757">
        <ele>790.82153320312</ele>
        <time>2020-12-13T14:19:18Z</time>
      </trkpt>
      <trkpt lat="43.31957" lon="5.68763">
        <ele>786.97631835938</ele>
        <time>2020-12-13T14:19:28Z</time>
      </trkpt>
      <trkpt lat="43.3196" lon="5.68773">
        <ele>782.65063476562</ele>
        <time>2020-12-13T14:19:36Z</time>
      </trkpt>
      <trkpt lat="43.3196" lon="5.6879">
        <ele>777.84375</ele>
        <time>2020-12-13T14:19:48Z</time>
      </trkpt>
      <trkpt lat="43.31962" lon="5.68803">
        <ele>775.4404296875</ele>
        <time>2020-12-13T14:19:59Z</time>
      </trkpt>
      <trkpt lat="43.31965" lon="5.68808">
        <ele>773.99853515625</ele>
        <time>2020-12-13T14:20:03Z</time>
      </trkpt>
      <trkpt lat="43.31967" lon="5.68813">
        <ele>772.07592773438</ele>
        <time>2020-12-13T14:20:07Z</time>
      </trkpt>
      <trkpt lat="43.3197" lon="5.68816">
        <ele>770.63403320312</ele>
        <time>2020-12-13T14:20:10Z</time>
      </trkpt>
      <trkpt lat="43.31973" lon="5.6882">
        <ele>768.23071289062</ele>
        <time>2020-12-13T14:20:14Z</time>
      </trkpt>
      <trkpt lat="43.31977" lon="5.68826">
        <ele>766.30810546875</ele>
        <time>2020-12-13T14:20:19Z</time>
      </trkpt>
      <trkpt lat="43.31981" lon="5.68833">
        <ele>764.8662109375</ele>
        <time>2020-12-13T14:20:23Z</time>
      </trkpt>
      <trkpt lat="43.31987" lon="5.68841">
        <ele>762.46264648438</ele>
        <time>2020-12-13T14:20:30Z</time>
      </trkpt>
      <trkpt lat="43.31998" lon="5.68848">
        <ele>761.02075195312</ele>
        <time>2020-12-13T14:20:39Z</time>
      </trkpt>
      <trkpt lat="43.32002" lon="5.68857">
        <ele>759.57885742188</ele>
        <time>2020-12-13T14:20:45Z</time>
      </trkpt>
      <trkpt lat="43.32005" lon="5.68859">
        <ele>758.61743164062</ele>
        <time>2020-12-13T14:20:47Z</time>
      </trkpt>
      <trkpt lat="43.32006" lon="5.68863">
        <ele>758.13696289062</ele>
        <time>2020-12-13T14:20:49Z</time>
      </trkpt>
      <trkpt lat="43.32013" lon="5.68869">
        <ele>757.17553710938</ele>
        <time>2020-12-13T14:20:55Z</time>
      </trkpt>
      <trkpt lat="43.32016" lon="5.68881">
        <ele>757.17553710938</ele>
        <time>2020-12-13T14:21:01Z</time>
      </trkpt>
      <trkpt lat="43.32023" lon="5.68885">
        <ele>757.17553710938</ele>
        <time>2020-12-13T14:21:06Z</time>
      </trkpt>
      <trkpt lat="43.32026" lon="5.68889">
        <ele>756.69482421875</ele>
        <time>2020-12-13T14:21:11Z</time>
      </trkpt>
      <trkpt lat="43.32029" lon="5.68892">
        <ele>757.17553710938</ele>
        <time>2020-12-13T14:21:13Z</time>
      </trkpt>
      <trkpt lat="43.32038" lon="5.68907">
        <ele>756.69482421875</ele>
        <time>2020-12-13T14:21:23Z</time>
      </trkpt>
      <trkpt lat="43.32039" lon="5.6891">
        <ele>756.21411132812</ele>
        <time>2020-12-13T14:21:25Z</time>
      </trkpt>
      <trkpt lat="43.32045" lon="5.68918">
        <ele>755.73364257812</ele>
        <time>2020-12-13T14:21:31Z</time>
      </trkpt>
      <trkpt lat="43.32051" lon="5.68923">
        <ele>756.69482421875</ele>
        <time>2020-12-13T14:21:36Z</time>
      </trkpt>
      <trkpt lat="43.32055" lon="5.68929">
        <ele>757.17553710938</ele>
        <time>2020-12-13T14:21:41Z</time>
      </trkpt>
      <trkpt lat="43.32064" lon="5.68939">
        <ele>757.65625</ele>
        <time>2020-12-13T14:21:51Z</time>
      </trkpt>
      <trkpt lat="43.32066" lon="5.68941">
        <ele>758.13696289062</ele>
        <time>2020-12-13T14:21:54Z</time>
      </trkpt>
      <trkpt lat="43.3207" lon="5.68944">
        <ele>759.57885742188</ele>
        <time>2020-12-13T14:21:59Z</time>
      </trkpt>
      <trkpt lat="43.32074" lon="5.68955">
        <ele>758.61743164062</ele>
        <time>2020-12-13T14:22:06Z</time>
      </trkpt>
      <trkpt lat="43.32082" lon="5.6896">
        <ele>758.13696289062</ele>
        <time>2020-12-13T14:22:11Z</time>
      </trkpt>
      <trkpt lat="43.32085" lon="5.68963">
        <ele>757.65625</ele>
        <time>2020-12-13T14:22:14Z</time>
      </trkpt>
      <trkpt lat="43.3209" lon="5.68987">
        <ele>756.21411132812</ele>
        <time>2020-12-13T14:22:32Z</time>
      </trkpt>
      <trkpt lat="43.32092" lon="5.68989">
        <ele>755.73364257812</ele>
        <time>2020-12-13T14:22:34Z</time>
      </trkpt>
      <trkpt lat="43.32096" lon="5.68996">
        <ele>754.77221679688</ele>
        <time>2020-12-13T14:22:39Z</time>
      </trkpt>
      <trkpt lat="43.32098" lon="5.69">
        <ele>753.81103515625</ele>
        <time>2020-12-13T14:22:42Z</time>
      </trkpt>
      <trkpt lat="43.32109" lon="5.69011">
        <ele>752.36889648438</ele>
        <time>2020-12-13T14:22:53Z</time>
      </trkpt>
      <trkpt lat="43.32113" lon="5.69017">
        <ele>751.88842773438</ele>
        <time>2020-12-13T14:22:58Z</time>
      </trkpt>
      <trkpt lat="43.32133" lon="5.69026">
        <ele>747.56225585938</ele>
        <time>2020-12-13T14:23:17Z</time>
      </trkpt>
      <trkpt lat="43.32142" lon="5.69044">
        <ele>741.31372070312</ele>
        <time>2020-12-13T14:23:34Z</time>
      </trkpt>
      <trkpt lat="43.32142" lon="5.69048">
        <ele>740.3525390625</ele>
        <time>2020-12-13T14:23:36Z</time>
      </trkpt>
      <trkpt lat="43.32143" lon="5.69062">
        <ele>736.98779296875</ele>
        <time>2020-12-13T14:23:43Z</time>
      </trkpt>
      <trkpt lat="43.32141" lon="5.69069">
        <ele>734.58471679688</ele>
        <time>2020-12-13T14:23:47Z</time>
      </trkpt>
      <trkpt lat="43.3214" lon="5.69071">
        <ele>732.662109375</ele>
        <time>2020-12-13T14:23:49Z</time>
      </trkpt>
      <trkpt lat="43.32139" lon="5.69084">
        <ele>727.85522460938</ele>
        <time>2020-12-13T14:23:58Z</time>
      </trkpt>
      <trkpt lat="43.32142" lon="5.69087">
        <ele>726.41333007812</ele>
        <time>2020-12-13T14:24:01Z</time>
      </trkpt>
      <trkpt lat="43.32148" lon="5.69098">
        <ele>723.52954101562</ele>
        <time>2020-12-13T14:24:09Z</time>
      </trkpt>
      <trkpt lat="43.32162" lon="5.69117">
        <ele>720.6455078125</ele>
        <time>2020-12-13T14:24:26Z</time>
      </trkpt>
      <trkpt lat="43.32179" lon="5.69127">
        <ele>716.80029296875</ele>
        <time>2020-12-13T14:24:46Z</time>
      </trkpt>
      <trkpt lat="43.32187" lon="5.6913">
        <ele>716.31958007812</ele>
        <time>2020-12-13T14:25:07Z</time>
      </trkpt>
      <trkpt lat="43.32195" lon="5.69141">
        <ele>714.39672851562</ele>
        <time>2020-12-13T14:25:17Z</time>
      </trkpt>
      <trkpt lat="43.32197" lon="5.69148">
        <ele>713.916015625</ele>
        <time>2020-12-13T14:25:21Z</time>
      </trkpt>
      <trkpt lat="43.32213" lon="5.69165">
        <ele>713.435546875</ele>
        <time>2020-12-13T14:25:42Z</time>
      </trkpt>
      <trkpt lat="43.32222" lon="5.6918">
        <ele>712.95483398438</ele>
        <time>2020-12-13T14:25:54Z</time>
      </trkpt>
      <trkpt lat="43.32222" lon="5.69188">
        <ele>712.95483398438</ele>
        <time>2020-12-13T14:25:58Z</time>
      </trkpt>
      <trkpt lat="43.32224" lon="5.69193">
        <ele>712.47412109375</ele>
        <time>2020-12-13T14:26:01Z</time>
      </trkpt>
      <trkpt lat="43.32231" lon="5.69203">
        <ele>711.99365234375</ele>
        <time>2020-12-13T14:26:08Z</time>
      </trkpt>
      <trkpt lat="43.32238" lon="5.69212">
        <ele>711.99365234375</ele>
        <time>2020-12-13T14:26:15Z</time>
      </trkpt>
      <trkpt lat="43.32239" lon="5.69215">
        <ele>711.99365234375</ele>
        <time>2020-12-13T14:26:17Z</time>
      </trkpt>
      <trkpt lat="43.32249" lon="5.69232">
        <ele>714.39672851562</ele>
        <time>2020-12-13T14:26:30Z</time>
      </trkpt>
      <trkpt lat="43.32257" lon="5.69246">
        <ele>717.76147460938</ele>
        <time>2020-12-13T14:26:42Z</time>
      </trkpt>
      <trkpt lat="43.32259" lon="5.69251">
        <ele>719.20361328125</ele>
        <time>2020-12-13T14:26:45Z</time>
      </trkpt>
      <trkpt lat="43.3227" lon="5.69273">
        <ele>723.048828125</ele>
        <time>2020-12-13T14:26:59Z</time>
      </trkpt>
      <trkpt lat="43.32295" lon="5.6929">
        <ele>724.49072265625</ele>
        <time>2020-12-13T14:27:15Z</time>
      </trkpt>
      <trkpt lat="43.32302" lon="5.69316">
        <ele>724.01000976562</ele>
        <time>2020-12-13T14:27:29Z</time>
      </trkpt>
      <trkpt lat="43.32303" lon="5.69319">
        <ele>724.01000976562</ele>
        <time>2020-12-13T14:27:31Z</time>
      </trkpt>
      <trkpt lat="43.32319" lon="5.69335">
        <ele>720.16479492188</ele>
        <time>2020-12-13T14:27:48Z</time>
      </trkpt>
      <trkpt lat="43.32323" lon="5.69342">
        <ele>720.16479492188</ele>
        <time>2020-12-13T14:27:54Z</time>
      </trkpt>
      <trkpt lat="43.32336" lon="5.69363">
        <ele>721.60668945312</ele>
        <time>2020-12-13T14:28:11Z</time>
      </trkpt>
      <trkpt lat="43.32343" lon="5.69372">
        <ele>722.56811523438</ele>
        <time>2020-12-13T14:28:18Z</time>
      </trkpt>
      <trkpt lat="43.32358" lon="5.69395">
        <ele>723.048828125</ele>
        <time>2020-12-13T14:28:33Z</time>
      </trkpt>
      <trkpt lat="43.32359" lon="5.69397">
        <ele>723.52954101562</ele>
        <time>2020-12-13T14:28:35Z</time>
      </trkpt>
      <trkpt lat="43.32362" lon="5.69402">
        <ele>721.60668945312</ele>
        <time>2020-12-13T14:28:39Z</time>
      </trkpt>
      <trkpt lat="43.32372" lon="5.69421">
        <ele>722.08740234375</ele>
        <time>2020-12-13T14:28:50Z</time>
      </trkpt>
      <trkpt lat="43.32376" lon="5.6943">
        <ele>720.6455078125</ele>
        <time>2020-12-13T14:28:55Z</time>
      </trkpt>
      <trkpt lat="43.3238" lon="5.69441">
        <ele>717.76147460938</ele>
        <time>2020-12-13T14:29:01Z</time>
      </trkpt>
      <trkpt lat="43.32383" lon="5.69446">
        <ele>716.80029296875</ele>
        <time>2020-12-13T14:29:04Z</time>
      </trkpt>
      <trkpt lat="43.32386" lon="5.69455">
        <ele>712.95483398438</ele>
        <time>2020-12-13T14:29:10Z</time>
      </trkpt>
      <trkpt lat="43.32391" lon="5.69478">
        <ele>707.18701171875</ele>
        <time>2020-12-13T14:29:23Z</time>
      </trkpt>
      <trkpt lat="43.32392" lon="5.69482">
        <ele>707.18701171875</ele>
        <time>2020-12-13T14:29:26Z</time>
      </trkpt>
      <trkpt lat="43.32395" lon="5.69509">
        <ele>705.7451171875</ele>
        <time>2020-12-13T14:29:41Z</time>
      </trkpt>
      <trkpt lat="43.32394" lon="5.69523">
        <ele>704.78369140625</ele>
        <time>2020-12-13T14:29:48Z</time>
      </trkpt>
      <trkpt lat="43.32397" lon="5.69532">
        <ele>708.1484375</ele>
        <time>2020-12-13T14:29:57Z</time>
      </trkpt>
      <trkpt lat="43.32408" lon="5.69544">
        <ele>710.07080078125</ele>
        <time>2020-12-13T14:30:06Z</time>
      </trkpt>
      <trkpt lat="43.32415" lon="5.69551">
        <ele>711.99365234375</ele>
        <time>2020-12-13T14:30:12Z</time>
      </trkpt>
      <trkpt lat="43.32418" lon="5.69555">
        <ele>712.95483398438</ele>
        <time>2020-12-13T14:30:16Z</time>
      </trkpt>
      <trkpt lat="43.32428" lon="5.69574">
        <ele>713.435546875</ele>
        <time>2020-12-13T14:30:29Z</time>
      </trkpt>
      <trkpt lat="43.3243" lon="5.69579">
        <ele>712.95483398438</ele>
        <time>2020-12-13T14:30:32Z</time>
      </trkpt>
      <trkpt lat="43.32463" lon="5.69595">
        <ele>709.10961914062</ele>
        <time>2020-12-13T14:30:48Z</time>
      </trkpt>
      <trkpt lat="43.32471" lon="5.69614">
        <ele>709.59033203125</ele>
        <time>2020-12-13T14:31:03Z</time>
      </trkpt>
      <trkpt lat="43.32476" lon="5.69619">
        <ele>709.10961914062</ele>
        <time>2020-12-13T14:31:08Z</time>
      </trkpt>
      <trkpt lat="43.32479" lon="5.69622">
        <ele>709.10961914062</ele>
        <time>2020-12-13T14:31:11Z</time>
      </trkpt>
      <trkpt lat="43.32478" lon="5.69626">
        <ele>709.10961914062</ele>
        <time>2020-12-13T14:31:13Z</time>
      </trkpt>
      <trkpt lat="43.32481" lon="5.69647">
        <ele>705.7451171875</ele>
        <time>2020-12-13T14:31:26Z</time>
      </trkpt>
      <trkpt lat="43.32481" lon="5.69654">
        <ele>704.78369140625</ele>
        <time>2020-12-13T14:31:30Z</time>
      </trkpt>
      <trkpt lat="43.32477" lon="5.69659">
        <ele>702.86108398438</ele>
        <time>2020-12-13T14:31:33Z</time>
      </trkpt>
      <trkpt lat="43.32479" lon="5.69663">
        <ele>700.4580078125</ele>
        <time>2020-12-13T14:31:37Z</time>
      </trkpt>
      <trkpt lat="43.32494" lon="5.69673">
        <ele>696.1318359375</ele>
        <time>2020-12-13T14:31:48Z</time>
      </trkpt>
      <trkpt lat="43.32506" lon="5.69697">
        <ele>694.68969726562</ele>
        <time>2020-12-13T14:32:06Z</time>
      </trkpt>
      <trkpt lat="43.32525" lon="5.69718">
        <ele>694.20922851562</ele>
        <time>2020-12-13T14:32:26Z</time>
      </trkpt>
      <trkpt lat="43.32536" lon="5.69729">
        <ele>694.20922851562</ele>
        <time>2020-12-13T14:32:44Z</time>
      </trkpt>
      <trkpt lat="43.32548" lon="5.69737">
        <ele>692.76733398438</ele>
        <time>2020-12-13T14:32:56Z</time>
      </trkpt>
      <trkpt lat="43.32551" lon="5.6974">
        <ele>692.76733398438</ele>
        <time>2020-12-13T14:33:00Z</time>
      </trkpt>
      <trkpt lat="43.32566" lon="5.69745">
        <ele>692.28662109375</ele>
        <time>2020-12-13T14:33:13Z</time>
      </trkpt>
      <trkpt lat="43.32574" lon="5.69751">
        <ele>692.28662109375</ele>
        <time>2020-12-13T14:33:20Z</time>
      </trkpt>
      <trkpt lat="43.32583" lon="5.69758">
        <ele>690.84448242188</ele>
        <time>2020-12-13T14:33:29Z</time>
      </trkpt>
      <trkpt lat="43.32598" lon="5.69772">
        <ele>689.40258789062</ele>
        <time>2020-12-13T14:33:45Z</time>
      </trkpt>
      <trkpt lat="43.32618" lon="5.6978">
        <ele>692.76733398438</ele>
        <time>2020-12-13T14:34:02Z</time>
      </trkpt>
      <trkpt lat="43.32628" lon="5.6979">
        <ele>689.40258789062</ele>
        <time>2020-12-13T14:34:12Z</time>
      </trkpt>
      <trkpt lat="43.32632" lon="5.69793">
        <ele>689.40258789062</ele>
        <time>2020-12-13T14:34:16Z</time>
      </trkpt>
      <trkpt lat="43.32643" lon="5.69796">
        <ele>690.36401367188</ele>
        <time>2020-12-13T14:34:29Z</time>
      </trkpt>
      <trkpt lat="43.32666" lon="5.69793">
        <ele>684.11547851562</ele>
        <time>2020-12-13T14:34:48Z</time>
      </trkpt>
      <trkpt lat="43.32682" lon="5.69788">
        <ele>680.27001953125</ele>
        <time>2020-12-13T14:35:03Z</time>
      </trkpt>
      <trkpt lat="43.32704" lon="5.69777">
        <ele>676.90551757812</ele>
        <time>2020-12-13T14:35:23Z</time>
      </trkpt>
      <trkpt lat="43.32706" lon="5.69778">
        <ele>676.90551757812</ele>
        <time>2020-12-13T14:35:25Z</time>
      </trkpt>
      <trkpt lat="43.32712" lon="5.69783">
        <ele>675.46337890625</ele>
        <time>2020-12-13T14:35:31Z</time>
      </trkpt>
      <trkpt lat="43.32715" lon="5.69806">
        <ele>671.1376953125</ele>
        <time>2020-12-13T14:35:46Z</time>
      </trkpt>
      <trkpt lat="43.32715" lon="5.69811">
        <ele>670.17626953125</ele>
        <time>2020-12-13T14:35:49Z</time>
      </trkpt>
      <trkpt lat="43.32717" lon="5.69815">
        <ele>667.77270507812</ele>
        <time>2020-12-13T14:35:52Z</time>
      </trkpt>
      <trkpt lat="43.32716" lon="5.69818">
        <ele>667.29223632812</ele>
        <time>2020-12-13T14:35:54Z</time>
      </trkpt>
      <trkpt lat="43.32716" lon="5.69833">
        <ele>662.96630859375</ele>
        <time>2020-12-13T14:36:05Z</time>
      </trkpt>
      <trkpt lat="43.32716" lon="5.69835">
        <ele>662.48559570312</ele>
        <time>2020-12-13T14:36:07Z</time>
      </trkpt>
      <trkpt lat="43.32717" lon="5.69844">
        <ele>662.00512695312</ele>
        <time>2020-12-13T14:36:11Z</time>
      </trkpt>
      <trkpt lat="43.3272" lon="5.69865">
        <ele>664.88891601562</ele>
        <time>2020-12-13T14:36:26Z</time>
      </trkpt>
      <trkpt lat="43.32731" lon="5.69879">
        <ele>665.36962890625</ele>
        <time>2020-12-13T14:36:40Z</time>
      </trkpt>
      <trkpt lat="43.32742" lon="5.69897">
        <ele>666.8115234375</ele>
        <time>2020-12-13T14:36:55Z</time>
      </trkpt>
      <trkpt lat="43.32743" lon="5.69919">
        <ele>665.36962890625</ele>
        <time>2020-12-13T14:37:10Z</time>
      </trkpt>
      <trkpt lat="43.32748" lon="5.69937">
        <ele>665.36962890625</ele>
        <time>2020-12-13T14:37:24Z</time>
      </trkpt>
      <trkpt lat="43.32749" lon="5.69941">
        <ele>665.36962890625</ele>
        <time>2020-12-13T14:37:26Z</time>
      </trkpt>
      <trkpt lat="43.32754" lon="5.6995">
        <ele>665.85034179688</ele>
        <time>2020-12-13T14:37:33Z</time>
      </trkpt>
      <trkpt lat="43.32756" lon="5.69954">
        <ele>664.88891601562</ele>
        <time>2020-12-13T14:37:36Z</time>
      </trkpt>
      <trkpt lat="43.32772" lon="5.69976">
        <ele>663.44702148438</ele>
        <time>2020-12-13T14:37:57Z</time>
      </trkpt>
      <trkpt lat="43.32772" lon="5.69979">
        <ele>663.44702148438</ele>
        <time>2020-12-13T14:37:59Z</time>
      </trkpt>
      <trkpt lat="43.32773" lon="5.69996">
        <ele>661.04370117188</ele>
        <time>2020-12-13T14:38:17Z</time>
      </trkpt>
      <trkpt lat="43.32772" lon="5.69997">
        <ele>660.56298828125</ele>
        <time>2020-12-13T14:38:41Z</time>
      </trkpt>
      <trkpt lat="43.32766" lon="5.70014">
        <ele>659.60180664062</ele>
        <time>2020-12-13T14:38:52Z</time>
      </trkpt>
      <trkpt lat="43.32768" lon="5.70021">
        <ele>660.08227539062</ele>
        <time>2020-12-13T14:38:56Z</time>
      </trkpt>
      <trkpt lat="43.32757" lon="5.70054">
        <ele>661.04370117188</ele>
        <time>2020-12-13T14:39:17Z</time>
      </trkpt>
      <trkpt lat="43.32756" lon="5.70056">
        <ele>661.5244140625</ele>
        <time>2020-12-13T14:39:19Z</time>
      </trkpt>
      <trkpt lat="43.32742" lon="5.70083">
        <ele>663.44702148438</ele>
        <time>2020-12-13T14:39:37Z</time>
      </trkpt>
      <trkpt lat="43.32728" lon="5.70121">
        <ele>666.33081054688</ele>
        <time>2020-12-13T14:40:00Z</time>
      </trkpt>
      <trkpt lat="43.32712" lon="5.70161">
        <ele>664.408203125</ele>
        <time>2020-12-13T14:40:26Z</time>
      </trkpt>
      <trkpt lat="43.32703" lon="5.70196">
        <ele>667.29223632812</ele>
        <time>2020-12-13T14:40:45Z</time>
      </trkpt>
      <trkpt lat="43.32697" lon="5.70227">
        <ele>667.77270507812</ele>
        <time>2020-12-13T14:41:05Z</time>
      </trkpt>
      <trkpt lat="43.32689" lon="5.70275">
        <ele>667.29223632812</ele>
        <time>2020-12-13T14:41:33Z</time>
      </trkpt>
      <trkpt lat="43.32688" lon="5.70313">
        <ele>666.33081054688</ele>
        <time>2020-12-13T14:41:55Z</time>
      </trkpt>
      <trkpt lat="43.32685" lon="5.70344">
        <ele>666.8115234375</ele>
        <time>2020-12-13T14:42:14Z</time>
      </trkpt>
      <trkpt lat="43.32678" lon="5.70379">
        <ele>668.734375</ele>
        <time>2020-12-13T14:42:34Z</time>
      </trkpt>
      <trkpt lat="43.32663" lon="5.7041">
        <ele>664.88891601562</ele>
        <time>2020-12-13T14:42:57Z</time>
      </trkpt>
      <trkpt lat="43.32647" lon="5.70441">
        <ele>664.408203125</ele>
        <time>2020-12-13T14:43:19Z</time>
      </trkpt>
      <trkpt lat="43.32627" lon="5.70481">
        <ele>663.44702148438</ele>
        <time>2020-12-13T14:43:46Z</time>
      </trkpt>
      <trkpt lat="43.32616" lon="5.7052">
        <ele>666.8115234375</ele>
        <time>2020-12-13T14:44:09Z</time>
      </trkpt>
      <trkpt lat="43.3261" lon="5.70563">
        <ele>671.1376953125</ele>
        <time>2020-12-13T14:44:33Z</time>
      </trkpt>
      <trkpt lat="43.32608" lon="5.70604">
        <ele>674.50219726562</ele>
        <time>2020-12-13T14:44:57Z</time>
      </trkpt>
      <trkpt lat="43.32609" lon="5.70631">
        <ele>677.86669921875</ele>
        <time>2020-12-13T14:45:13Z</time>
      </trkpt>
      <trkpt lat="43.32609" lon="5.70633">
        <ele>678.828125</ele>
        <time>2020-12-13T14:45:15Z</time>
      </trkpt>
      <trkpt lat="43.32604" lon="5.70659">
        <ele>678.34741210938</ele>
        <time>2020-12-13T14:45:32Z</time>
      </trkpt>
      <trkpt lat="43.32605" lon="5.70661">
        <ele>678.34741210938</ele>
        <time>2020-12-13T14:45:33Z</time>
      </trkpt>
      <trkpt lat="43.32606" lon="5.70666">
        <ele>678.34741210938</ele>
        <time>2020-12-13T14:45:49Z</time>
      </trkpt>
      <trkpt lat="43.32606" lon="5.70669">
        <ele>677.38623046875</ele>
        <time>2020-12-13T14:46:13Z</time>
      </trkpt>
      <trkpt lat="43.32602" lon="5.70677">
        <ele>676.90551757812</ele>
        <time>2020-12-13T14:46:37Z</time>
      </trkpt>
      <trkpt lat="43.32599" lon="5.70676">
        <ele>675.94409179688</ele>
        <time>2020-12-13T14:46:42Z</time>
      </trkpt>
      <trkpt lat="43.32597" lon="5.70673">
        <ele>675.46337890625</ele>
        <time>2020-12-13T14:46:47Z</time>
      </trkpt>
      <trkpt lat="43.32592" lon="5.7067">
        <ele>677.86669921875</ele>
        <time>2020-12-13T14:46:54Z</time>
      </trkpt>
      <trkpt lat="43.32583" lon="5.70653">
        <ele>675.46337890625</ele>
        <time>2020-12-13T14:47:08Z</time>
      </trkpt>
      <trkpt lat="43.32579" lon="5.70657">
        <ele>675.94409179688</ele>
        <time>2020-12-13T14:47:13Z</time>
      </trkpt>
      <trkpt lat="43.32567" lon="5.7066">
        <ele>676.90551757812</ele>
        <time>2020-12-13T14:47:24Z</time>
      </trkpt>
      <trkpt lat="43.32541" lon="5.70652">
        <ele>677.38623046875</ele>
        <time>2020-12-13T14:47:48Z</time>
      </trkpt>
      <trkpt lat="43.32536" lon="5.70651">
        <ele>677.86669921875</ele>
        <time>2020-12-13T14:47:52Z</time>
      </trkpt>
      <trkpt lat="43.32527" lon="5.70653">
        <ele>677.86669921875</ele>
        <time>2020-12-13T14:47:59Z</time>
      </trkpt>
      <trkpt lat="43.32516" lon="5.70669">
        <ele>677.38623046875</ele>
        <time>2020-12-13T14:48:14Z</time>
      </trkpt>
      <trkpt lat="43.32513" lon="5.70674">
        <ele>677.38623046875</ele>
        <time>2020-12-13T14:48:18Z</time>
      </trkpt>
      <trkpt lat="43.32501" lon="5.70678">
        <ele>678.34741210938</ele>
        <time>2020-12-13T14:48:25Z</time>
      </trkpt>
      <trkpt lat="43.32493" lon="5.70679">
        <ele>679.30859375</ele>
        <time>2020-12-13T14:48:34Z</time>
      </trkpt>
      <trkpt lat="43.32482" lon="5.70681">
        <ele>682.67333984375</ele>
        <time>2020-12-13T14:48:49Z</time>
      </trkpt>
      <trkpt lat="43.32477" lon="5.70679">
        <ele>685.07690429688</ele>
        <time>2020-12-13T14:49:21Z</time>
      </trkpt>
      <trkpt lat="43.32464" lon="5.70682">
        <ele>686.0380859375</ele>
        <time>2020-12-13T14:49:37Z</time>
      </trkpt>
      <trkpt lat="43.32453" lon="5.70675">
        <ele>686.0380859375</ele>
        <time>2020-12-13T14:49:57Z</time>
      </trkpt>
      <trkpt lat="43.32447" lon="5.70673">
        <ele>686.51879882812</ele>
        <time>2020-12-13T14:50:17Z</time>
      </trkpt>
      <trkpt lat="43.3244" lon="5.70669">
        <ele>686.0380859375</ele>
        <time>2020-12-13T14:50:40Z</time>
      </trkpt>
      <trkpt lat="43.32419" lon="5.70677">
        <ele>685.55737304688</ele>
        <time>2020-12-13T14:50:56Z</time>
      </trkpt>
      <trkpt lat="43.32414" lon="5.70686">
        <ele>686.0380859375</ele>
        <time>2020-12-13T14:51:12Z</time>
      </trkpt>
      <trkpt lat="43.32404" lon="5.70693">
        <ele>686.0380859375</ele>
        <time>2020-12-13T14:51:26Z</time>
      </trkpt>
      <trkpt lat="43.32382" lon="5.70701">
        <ele>686.99926757812</ele>
        <time>2020-12-13T14:51:45Z</time>
      </trkpt>
      <trkpt lat="43.32379" lon="5.70713">
        <ele>691.3251953125</ele>
        <time>2020-12-13T14:51:59Z</time>
      </trkpt>
      <trkpt lat="43.32379" lon="5.70715">
        <ele>692.28662109375</ele>
        <time>2020-12-13T14:52:21Z</time>
      </trkpt>
    </trkseg>
  </trk>
</gpx>